<?xml version="1.0" encoding="UTF-8" standalone="no" ?>
<gpx xmlns="http://www.topografix.com/GPX/1/1" xmlns:xsi="http://www.w3.org/2001/XMLSchema-instance" xsi:schemaLocation="http://www.topografix.com/GPX/1/1 http://www.topografix.com/GPX/1/1/gpx.xsd" version="1.1" creator="VisuGPX - https://www.visugpx.com">
  <metadata>
    <name>Rando Telethon 2010 - Cruzy - 37km</name>
    <desc><![CDATA[Trace officielle du parcours de 37 km / 800m D  de la première Rando des Grimpailloux de Cruzy]]></desc>
  </metadata>
  <trk>
    <name><![CDATA[11Cruzy37kmd840m_041210]]></name>
    <trkseg>
      <trkpt lat="43.35612" lon="2.94105">
        <ele>97</ele>
        <time>2010-12-04T08:14:26Z</time>
      </trkpt>
      <trkpt lat="43.35616" lon="2.94106">
        <ele>97</ele>
        <time>2010-12-04T08:14:32Z</time>
      </trkpt>
      <trkpt lat="43.35637" lon="2.94107">
        <ele>98</ele>
        <time>2010-12-04T08:14:39Z</time>
      </trkpt>
      <trkpt lat="43.35661" lon="2.94104">
        <ele>99</ele>
        <time>2010-12-04T08:14:47Z</time>
      </trkpt>
      <trkpt lat="43.35676" lon="2.94091">
        <ele>100</ele>
        <time>2010-12-04T08:14:56Z</time>
      </trkpt>
      <trkpt lat="43.35721" lon="2.941">
        <ele>102</ele>
        <time>2010-12-04T08:15:09Z</time>
      </trkpt>
      <trkpt lat="43.35731" lon="2.94088">
        <ele>102</ele>
        <time>2010-12-04T08:15:16Z</time>
      </trkpt>
      <trkpt lat="43.35725" lon="2.94033">
        <ele>105</ele>
        <time>2010-12-04T08:15:30Z</time>
      </trkpt>
      <trkpt lat="43.35725" lon="2.94007">
        <ele>105</ele>
        <time>2010-12-04T08:15:37Z</time>
      </trkpt>
      <trkpt lat="43.35756" lon="2.94005">
        <ele>108</ele>
        <time>2010-12-04T08:15:48Z</time>
      </trkpt>
      <trkpt lat="43.35794" lon="2.94009">
        <ele>108</ele>
        <time>2010-12-04T08:16:00Z</time>
      </trkpt>
      <trkpt lat="43.3584" lon="2.94012">
        <ele>109</ele>
        <time>2010-12-04T08:16:15Z</time>
      </trkpt>
      <trkpt lat="43.35892" lon="2.94022">
        <ele>111</ele>
        <time>2010-12-04T08:16:32Z</time>
      </trkpt>
      <trkpt lat="43.35931" lon="2.94027">
        <ele>115</ele>
        <time>2010-12-04T08:16:46Z</time>
      </trkpt>
      <trkpt lat="43.35964" lon="2.94021">
        <ele>118</ele>
        <time>2010-12-04T08:17:00Z</time>
      </trkpt>
      <trkpt lat="43.36006" lon="2.94009">
        <ele>122</ele>
        <time>2010-12-04T08:17:18Z</time>
      </trkpt>
      <trkpt lat="43.36044" lon="2.93997">
        <ele>126</ele>
        <time>2010-12-04T08:17:34Z</time>
      </trkpt>
      <trkpt lat="43.36087" lon="2.93973">
        <ele>125</ele>
        <time>2010-12-04T08:17:49Z</time>
      </trkpt>
      <trkpt lat="43.36129" lon="2.93955">
        <ele>124</ele>
        <time>2010-12-04T08:17:59Z</time>
      </trkpt>
      <trkpt lat="43.36193" lon="2.93917">
        <ele>124</ele>
        <time>2010-12-04T08:18:17Z</time>
      </trkpt>
      <trkpt lat="43.36247" lon="2.93887">
        <ele>127</ele>
        <time>2010-12-04T08:18:35Z</time>
      </trkpt>
      <trkpt lat="43.36288" lon="2.93899">
        <ele>127</ele>
        <time>2010-12-04T08:18:49Z</time>
      </trkpt>
      <trkpt lat="43.36329" lon="2.93894">
        <ele>131</ele>
        <time>2010-12-04T08:19:04Z</time>
      </trkpt>
      <trkpt lat="43.36357" lon="2.93868">
        <ele>133</ele>
        <time>2010-12-04T08:19:18Z</time>
      </trkpt>
      <trkpt lat="43.36378" lon="2.93846">
        <ele>136</ele>
        <time>2010-12-04T08:19:31Z</time>
      </trkpt>
      <trkpt lat="43.36397" lon="2.93821">
        <ele>140</ele>
        <time>2010-12-04T08:19:46Z</time>
      </trkpt>
      <trkpt lat="43.36409" lon="2.93795">
        <ele>143</ele>
        <time>2010-12-04T08:19:58Z</time>
      </trkpt>
      <trkpt lat="43.36436" lon="2.93759">
        <ele>145</ele>
        <time>2010-12-04T08:20:14Z</time>
      </trkpt>
      <trkpt lat="43.36461" lon="2.9374">
        <ele>147</ele>
        <time>2010-12-04T08:20:28Z</time>
      </trkpt>
      <trkpt lat="43.36484" lon="2.93751">
        <ele>151</ele>
        <time>2010-12-04T08:20:41Z</time>
      </trkpt>
      <trkpt lat="43.3649" lon="2.93773">
        <ele>153</ele>
        <time>2010-12-04T08:20:49Z</time>
      </trkpt>
      <trkpt lat="43.36504" lon="2.9378">
        <ele>155</ele>
        <time>2010-12-04T08:21:01Z</time>
      </trkpt>
      <trkpt lat="43.3652" lon="2.93773">
        <ele>156</ele>
        <time>2010-12-04T08:21:12Z</time>
      </trkpt>
      <trkpt lat="43.36545" lon="2.93774">
        <ele>157</ele>
        <time>2010-12-04T08:21:25Z</time>
      </trkpt>
      <trkpt lat="43.36579" lon="2.93768">
        <ele>158</ele>
        <time>2010-12-04T08:21:40Z</time>
      </trkpt>
      <trkpt lat="43.36608" lon="2.93764">
        <ele>163</ele>
        <time>2010-12-04T08:21:55Z</time>
      </trkpt>
      <trkpt lat="43.36631" lon="2.93754">
        <ele>165</ele>
        <time>2010-12-04T08:22:10Z</time>
      </trkpt>
      <trkpt lat="43.36639" lon="2.9374">
        <ele>166</ele>
        <time>2010-12-04T08:22:20Z</time>
      </trkpt>
      <trkpt lat="43.36652" lon="2.9373">
        <ele>168</ele>
        <time>2010-12-04T08:22:29Z</time>
      </trkpt>
      <trkpt lat="43.36668" lon="2.9372">
        <ele>170</ele>
        <time>2010-12-04T08:22:38Z</time>
      </trkpt>
      <trkpt lat="43.36694" lon="2.93699">
        <ele>171</ele>
        <time>2010-12-04T08:22:53Z</time>
      </trkpt>
      <trkpt lat="43.36714" lon="2.93719">
        <ele>170</ele>
        <time>2010-12-04T08:23:00Z</time>
      </trkpt>
      <trkpt lat="43.3673" lon="2.93787">
        <ele>169</ele>
        <time>2010-12-04T08:23:12Z</time>
      </trkpt>
      <trkpt lat="43.3672" lon="2.93824">
        <ele>167</ele>
        <time>2010-12-04T08:23:20Z</time>
      </trkpt>
      <trkpt lat="43.36712" lon="2.93849">
        <ele>164</ele>
        <time>2010-12-04T08:23:24Z</time>
      </trkpt>
      <trkpt lat="43.36712" lon="2.93876">
        <ele>162</ele>
        <time>2010-12-04T08:23:31Z</time>
      </trkpt>
      <trkpt lat="43.36721" lon="2.93864">
        <ele>164</ele>
        <time>2010-12-04T08:23:37Z</time>
      </trkpt>
      <trkpt lat="43.36758" lon="2.9387">
        <ele>167</ele>
        <time>2010-12-04T08:23:51Z</time>
      </trkpt>
      <trkpt lat="43.36773" lon="2.93874">
        <ele>170</ele>
        <time>2010-12-04T08:24:01Z</time>
      </trkpt>
      <trkpt lat="43.36775" lon="2.93876">
        <ele>170</ele>
        <time>2010-12-04T08:24:12Z</time>
      </trkpt>
      <trkpt lat="43.3679" lon="2.9388">
        <ele>171</ele>
        <time>2010-12-04T08:24:20Z</time>
      </trkpt>
      <trkpt lat="43.36794" lon="2.93883">
        <ele>171</ele>
        <time>2010-12-04T08:24:26Z</time>
      </trkpt>
      <trkpt lat="43.36804" lon="2.93883">
        <ele>171</ele>
        <time>2010-12-04T08:24:38Z</time>
      </trkpt>
      <trkpt lat="43.36823" lon="2.93882">
        <ele>173</ele>
        <time>2010-12-04T08:24:49Z</time>
      </trkpt>
      <trkpt lat="43.3683" lon="2.93878">
        <ele>176</ele>
        <time>2010-12-04T08:24:55Z</time>
      </trkpt>
      <trkpt lat="43.36837" lon="2.93885">
        <ele>176</ele>
        <time>2010-12-04T08:25:02Z</time>
      </trkpt>
      <trkpt lat="43.36854" lon="2.93887">
        <ele>181</ele>
        <time>2010-12-04T08:25:14Z</time>
      </trkpt>
      <trkpt lat="43.36872" lon="2.93898">
        <ele>182</ele>
        <time>2010-12-04T08:25:26Z</time>
      </trkpt>
      <trkpt lat="43.3689" lon="2.93901">
        <ele>186</ele>
        <time>2010-12-04T08:25:38Z</time>
      </trkpt>
      <trkpt lat="43.36901" lon="2.93909">
        <ele>189</ele>
        <time>2010-12-04T08:25:49Z</time>
      </trkpt>
      <trkpt lat="43.36902" lon="2.93906">
        <ele>189</ele>
        <time>2010-12-04T08:25:53Z</time>
      </trkpt>
      <trkpt lat="43.36902" lon="2.93907">
        <ele>189</ele>
        <time>2010-12-04T08:26:10Z</time>
      </trkpt>
      <trkpt lat="43.36895" lon="2.9389">
        <ele>191</ele>
        <time>2010-12-04T08:26:19Z</time>
      </trkpt>
      <trkpt lat="43.3688" lon="2.93865">
        <ele>195</ele>
        <time>2010-12-04T08:26:32Z</time>
      </trkpt>
      <trkpt lat="43.36867" lon="2.93839">
        <ele>198</ele>
        <time>2010-12-04T08:26:46Z</time>
      </trkpt>
      <trkpt lat="43.36849" lon="2.93803">
        <ele>201</ele>
        <time>2010-12-04T08:27:03Z</time>
      </trkpt>
      <trkpt lat="43.36833" lon="2.93766">
        <ele>203</ele>
        <time>2010-12-04T08:27:22Z</time>
      </trkpt>
      <trkpt lat="43.36825" lon="2.93726">
        <ele>207</ele>
        <time>2010-12-04T08:27:35Z</time>
      </trkpt>
      <trkpt lat="43.36824" lon="2.93701">
        <ele>209</ele>
        <time>2010-12-04T08:27:45Z</time>
      </trkpt>
      <trkpt lat="43.36834" lon="2.93663">
        <ele>213</ele>
        <time>2010-12-04T08:28:03Z</time>
      </trkpt>
      <trkpt lat="43.36857" lon="2.93647">
        <ele>215</ele>
        <time>2010-12-04T08:28:18Z</time>
      </trkpt>
      <trkpt lat="43.36878" lon="2.93634">
        <ele>219</ele>
        <time>2010-12-04T08:28:32Z</time>
      </trkpt>
      <trkpt lat="43.3688" lon="2.93601">
        <ele>222</ele>
        <time>2010-12-04T08:28:46Z</time>
      </trkpt>
      <trkpt lat="43.36882" lon="2.9356">
        <ele>225</ele>
        <time>2010-12-04T08:29:03Z</time>
      </trkpt>
      <trkpt lat="43.36903" lon="2.93538">
        <ele>227</ele>
        <time>2010-12-04T08:29:17Z</time>
      </trkpt>
      <trkpt lat="43.36937" lon="2.93517">
        <ele>229</ele>
        <time>2010-12-04T08:29:37Z</time>
      </trkpt>
      <trkpt lat="43.36944" lon="2.9354">
        <ele>231</ele>
        <time>2010-12-04T08:29:48Z</time>
      </trkpt>
      <trkpt lat="43.36937" lon="2.93576">
        <ele>234</ele>
        <time>2010-12-04T08:30:02Z</time>
      </trkpt>
      <trkpt lat="43.36956" lon="2.93617">
        <ele>237</ele>
        <time>2010-12-04T08:30:18Z</time>
      </trkpt>
      <trkpt lat="43.36989" lon="2.93668">
        <ele>238</ele>
        <time>2010-12-04T08:30:37Z</time>
      </trkpt>
      <trkpt lat="43.37001" lon="2.93717">
        <ele>239</ele>
        <time>2010-12-04T08:30:48Z</time>
      </trkpt>
      <trkpt lat="43.37031" lon="2.93782">
        <ele>238</ele>
        <time>2010-12-04T08:31:04Z</time>
      </trkpt>
      <trkpt lat="43.37061" lon="2.93834">
        <ele>236</ele>
        <time>2010-12-04T08:31:17Z</time>
      </trkpt>
      <trkpt lat="43.37088" lon="2.93856">
        <ele>234</ele>
        <time>2010-12-04T08:31:24Z</time>
      </trkpt>
      <trkpt lat="43.37178" lon="2.9387">
        <ele>230</ele>
        <time>2010-12-04T08:31:39Z</time>
      </trkpt>
      <trkpt lat="43.37247" lon="2.93868">
        <ele>224</ele>
        <time>2010-12-04T08:31:48Z</time>
      </trkpt>
      <trkpt lat="43.37265" lon="2.93848">
        <ele>220</ele>
        <time>2010-12-04T08:31:52Z</time>
      </trkpt>
      <trkpt lat="43.37282" lon="2.93863">
        <ele>219</ele>
        <time>2010-12-04T08:31:55Z</time>
      </trkpt>
      <trkpt lat="43.37328" lon="2.9394">
        <ele>211</ele>
        <time>2010-12-04T08:32:03Z</time>
      </trkpt>
      <trkpt lat="43.37369" lon="2.93971">
        <ele>207</ele>
        <time>2010-12-04T08:32:08Z</time>
      </trkpt>
      <trkpt lat="43.37402" lon="2.93947">
        <ele>207</ele>
        <time>2010-12-04T08:32:14Z</time>
      </trkpt>
      <trkpt lat="43.37404" lon="2.93889">
        <ele>203</ele>
        <time>2010-12-04T08:32:20Z</time>
      </trkpt>
      <trkpt lat="43.37387" lon="2.93846">
        <ele>201</ele>
        <time>2010-12-04T08:32:24Z</time>
      </trkpt>
      <trkpt lat="43.37335" lon="2.93783">
        <ele>197</ele>
        <time>2010-12-04T08:32:32Z</time>
      </trkpt>
      <trkpt lat="43.37337" lon="2.9377">
        <ele>193</ele>
        <time>2010-12-04T08:32:37Z</time>
      </trkpt>
      <trkpt lat="43.37343" lon="2.93782">
        <ele>192</ele>
        <time>2010-12-04T08:32:43Z</time>
      </trkpt>
      <trkpt lat="43.37343" lon="2.93782">
        <ele>193</ele>
        <time>2010-12-04T08:32:50Z</time>
      </trkpt>
      <trkpt lat="43.37384" lon="2.93813">
        <ele>192</ele>
        <time>2010-12-04T08:33:00Z</time>
      </trkpt>
      <trkpt lat="43.37417" lon="2.93854">
        <ele>188</ele>
        <time>2010-12-04T08:33:06Z</time>
      </trkpt>
      <trkpt lat="43.3746" lon="2.93852">
        <ele>183</ele>
        <time>2010-12-04T08:33:11Z</time>
      </trkpt>
      <trkpt lat="43.37488" lon="2.93833">
        <ele>178</ele>
        <time>2010-12-04T08:33:17Z</time>
      </trkpt>
      <trkpt lat="43.37475" lon="2.93813">
        <ele>175</ele>
        <time>2010-12-04T08:33:21Z</time>
      </trkpt>
      <trkpt lat="43.37436" lon="2.93776">
        <ele>172</ele>
        <time>2010-12-04T08:33:26Z</time>
      </trkpt>
      <trkpt lat="43.37405" lon="2.93721">
        <ele>174</ele>
        <time>2010-12-04T08:33:33Z</time>
      </trkpt>
      <trkpt lat="43.37381" lon="2.93681">
        <ele>174</ele>
        <time>2010-12-04T08:33:41Z</time>
      </trkpt>
      <trkpt lat="43.3733" lon="2.9364">
        <ele>172</ele>
        <time>2010-12-04T08:33:52Z</time>
      </trkpt>
      <trkpt lat="43.37305" lon="2.93607">
        <ele>172</ele>
        <time>2010-12-04T08:33:58Z</time>
      </trkpt>
      <trkpt lat="43.37298" lon="2.93588">
        <ele>169</ele>
        <time>2010-12-04T08:34:05Z</time>
      </trkpt>
      <trkpt lat="43.37296" lon="2.93574">
        <ele>167</ele>
        <time>2010-12-04T08:34:10Z</time>
      </trkpt>
      <trkpt lat="43.37309" lon="2.93555">
        <ele>161</ele>
        <time>2010-12-04T08:34:17Z</time>
      </trkpt>
      <trkpt lat="43.37319" lon="2.93536">
        <ele>158</ele>
        <time>2010-12-04T08:34:23Z</time>
      </trkpt>
      <trkpt lat="43.37332" lon="2.9354">
        <ele>155</ele>
        <time>2010-12-04T08:34:29Z</time>
      </trkpt>
      <trkpt lat="43.37343" lon="2.93565">
        <ele>157</ele>
        <time>2010-12-04T08:34:39Z</time>
      </trkpt>
      <trkpt lat="43.37347" lon="2.93571">
        <ele>157</ele>
        <time>2010-12-04T08:34:45Z</time>
      </trkpt>
      <trkpt lat="43.37349" lon="2.93576">
        <ele>157</ele>
        <time>2010-12-04T08:34:52Z</time>
      </trkpt>
      <trkpt lat="43.37361" lon="2.93586">
        <ele>155</ele>
        <time>2010-12-04T08:34:59Z</time>
      </trkpt>
      <trkpt lat="43.37368" lon="2.93593">
        <ele>157</ele>
        <time>2010-12-04T08:35:09Z</time>
      </trkpt>
      <trkpt lat="43.37371" lon="2.93594">
        <ele>158</ele>
        <time>2010-12-04T08:35:14Z</time>
      </trkpt>
      <trkpt lat="43.37384" lon="2.93599">
        <ele>157</ele>
        <time>2010-12-04T08:35:22Z</time>
      </trkpt>
      <trkpt lat="43.37399" lon="2.93605">
        <ele>155</ele>
        <time>2010-12-04T08:35:30Z</time>
      </trkpt>
      <trkpt lat="43.374" lon="2.93604">
        <ele>154</ele>
        <time>2010-12-04T08:35:34Z</time>
      </trkpt>
      <trkpt lat="43.37402" lon="2.93605">
        <ele>154</ele>
        <time>2010-12-04T08:36:04Z</time>
      </trkpt>
      <trkpt lat="43.37409" lon="2.93618">
        <ele>155</ele>
        <time>2010-12-04T08:36:09Z</time>
      </trkpt>
      <trkpt lat="43.37429" lon="2.93642">
        <ele>155</ele>
        <time>2010-12-04T08:36:17Z</time>
      </trkpt>
      <trkpt lat="43.37444" lon="2.9365">
        <ele>156</ele>
        <time>2010-12-04T08:36:25Z</time>
      </trkpt>
      <trkpt lat="43.37446" lon="2.93658">
        <ele>157</ele>
        <time>2010-12-04T08:36:29Z</time>
      </trkpt>
      <trkpt lat="43.37456" lon="2.93672">
        <ele>158</ele>
        <time>2010-12-04T08:36:39Z</time>
      </trkpt>
      <trkpt lat="43.37465" lon="2.93677">
        <ele>157</ele>
        <time>2010-12-04T08:36:47Z</time>
      </trkpt>
      <trkpt lat="43.37472" lon="2.93671">
        <ele>156</ele>
        <time>2010-12-04T08:37:05Z</time>
      </trkpt>
      <trkpt lat="43.37479" lon="2.93652">
        <ele>153</ele>
        <time>2010-12-04T08:37:12Z</time>
      </trkpt>
      <trkpt lat="43.37482" lon="2.93639">
        <ele>153</ele>
        <time>2010-12-04T08:37:18Z</time>
      </trkpt>
      <trkpt lat="43.37484" lon="2.93636">
        <ele>152</ele>
        <time>2010-12-04T08:37:25Z</time>
      </trkpt>
      <trkpt lat="43.37494" lon="2.9362">
        <ele>152</ele>
        <time>2010-12-04T08:37:36Z</time>
      </trkpt>
      <trkpt lat="43.37513" lon="2.93612">
        <ele>153</ele>
        <time>2010-12-04T08:37:45Z</time>
      </trkpt>
      <trkpt lat="43.37527" lon="2.93616">
        <ele>154</ele>
        <time>2010-12-04T08:37:51Z</time>
      </trkpt>
      <trkpt lat="43.37532" lon="2.93611">
        <ele>154</ele>
        <time>2010-12-04T08:37:54Z</time>
      </trkpt>
      <trkpt lat="43.37549" lon="2.93606">
        <ele>155</ele>
        <time>2010-12-04T08:38:01Z</time>
      </trkpt>
      <trkpt lat="43.37567" lon="2.9359">
        <ele>156</ele>
        <time>2010-12-04T08:38:10Z</time>
      </trkpt>
      <trkpt lat="43.37569" lon="2.9359">
        <ele>156</ele>
        <time>2010-12-04T08:38:33Z</time>
      </trkpt>
      <trkpt lat="43.37581" lon="2.93595">
        <ele>158</ele>
        <time>2010-12-04T08:38:40Z</time>
      </trkpt>
      <trkpt lat="43.37598" lon="2.93606">
        <ele>159</ele>
        <time>2010-12-04T08:38:49Z</time>
      </trkpt>
      <trkpt lat="43.37614" lon="2.93619">
        <ele>160</ele>
        <time>2010-12-04T08:39:00Z</time>
      </trkpt>
      <trkpt lat="43.37619" lon="2.93624">
        <ele>160</ele>
        <time>2010-12-04T08:39:07Z</time>
      </trkpt>
      <trkpt lat="43.37619" lon="2.93626">
        <ele>160</ele>
        <time>2010-12-04T08:39:26Z</time>
      </trkpt>
      <trkpt lat="43.3762" lon="2.93626">
        <ele>160</ele>
        <time>2010-12-04T08:39:30Z</time>
      </trkpt>
      <trkpt lat="43.37624" lon="2.9362">
        <ele>160</ele>
        <time>2010-12-04T08:39:36Z</time>
      </trkpt>
      <trkpt lat="43.37626" lon="2.93619">
        <ele>160</ele>
        <time>2010-12-04T08:39:52Z</time>
      </trkpt>
      <trkpt lat="43.37626" lon="2.93618">
        <ele>160</ele>
        <time>2010-12-04T08:39:56Z</time>
      </trkpt>
      <trkpt lat="43.37626" lon="2.93616">
        <ele>160</ele>
        <time>2010-12-04T08:39:59Z</time>
      </trkpt>
      <trkpt lat="43.37627" lon="2.93609">
        <ele>160</ele>
        <time>2010-12-04T08:40:04Z</time>
      </trkpt>
      <trkpt lat="43.37631" lon="2.93582">
        <ele>160</ele>
        <time>2010-12-04T08:40:16Z</time>
      </trkpt>
      <trkpt lat="43.37631" lon="2.93582">
        <ele>160</ele>
        <time>2010-12-04T08:40:20Z</time>
      </trkpt>
      <trkpt lat="43.37639" lon="2.93585">
        <ele>160</ele>
        <time>2010-12-04T08:41:04Z</time>
      </trkpt>
      <trkpt lat="43.37633" lon="2.93583">
        <ele>161</ele>
        <time>2010-12-04T08:41:18Z</time>
      </trkpt>
      <trkpt lat="43.37624" lon="2.93567">
        <ele>161</ele>
        <time>2010-12-04T08:41:27Z</time>
      </trkpt>
      <trkpt lat="43.37612" lon="2.93535">
        <ele>162</ele>
        <time>2010-12-04T08:41:38Z</time>
      </trkpt>
      <trkpt lat="43.37582" lon="2.93503">
        <ele>163</ele>
        <time>2010-12-04T08:41:53Z</time>
      </trkpt>
      <trkpt lat="43.37558" lon="2.93486">
        <ele>165</ele>
        <time>2010-12-04T08:42:06Z</time>
      </trkpt>
      <trkpt lat="43.37519" lon="2.93451">
        <ele>164</ele>
        <time>2010-12-04T08:42:22Z</time>
      </trkpt>
      <trkpt lat="43.37478" lon="2.93418">
        <ele>163</ele>
        <time>2010-12-04T08:42:36Z</time>
      </trkpt>
      <trkpt lat="43.37465" lon="2.9343">
        <ele>162</ele>
        <time>2010-12-04T08:42:42Z</time>
      </trkpt>
      <trkpt lat="43.37438" lon="2.93452">
        <ele>159</ele>
        <time>2010-12-04T08:42:48Z</time>
      </trkpt>
      <trkpt lat="43.37383" lon="2.93433">
        <ele>155</ele>
        <time>2010-12-04T08:42:56Z</time>
      </trkpt>
      <trkpt lat="43.3734" lon="2.93403">
        <ele>152</ele>
        <time>2010-12-04T08:43:04Z</time>
      </trkpt>
      <trkpt lat="43.37301" lon="2.9336">
        <ele>149</ele>
        <time>2010-12-04T08:43:11Z</time>
      </trkpt>
      <trkpt lat="43.37279" lon="2.93333">
        <ele>151</ele>
        <time>2010-12-04T08:43:16Z</time>
      </trkpt>
      <trkpt lat="43.37257" lon="2.93306">
        <ele>151</ele>
        <time>2010-12-04T08:43:23Z</time>
      </trkpt>
      <trkpt lat="43.37221" lon="2.93264">
        <ele>149</ele>
        <time>2010-12-04T08:43:32Z</time>
      </trkpt>
      <trkpt lat="43.37201" lon="2.9324">
        <ele>149</ele>
        <time>2010-12-04T08:43:37Z</time>
      </trkpt>
      <trkpt lat="43.37127" lon="2.9318">
        <ele>146</ele>
        <time>2010-12-04T08:43:52Z</time>
      </trkpt>
      <trkpt lat="43.37086" lon="2.93136">
        <ele>143</ele>
        <time>2010-12-04T08:44:01Z</time>
      </trkpt>
      <trkpt lat="43.37075" lon="2.9307">
        <ele>141</ele>
        <time>2010-12-04T08:44:08Z</time>
      </trkpt>
      <trkpt lat="43.37067" lon="2.93022">
        <ele>142</ele>
        <time>2010-12-04T08:44:15Z</time>
      </trkpt>
      <trkpt lat="43.37054" lon="2.92998">
        <ele>142</ele>
        <time>2010-12-04T08:44:20Z</time>
      </trkpt>
      <trkpt lat="43.36999" lon="2.92967">
        <ele>139</ele>
        <time>2010-12-04T08:44:31Z</time>
      </trkpt>
      <trkpt lat="43.36952" lon="2.92921">
        <ele>138</ele>
        <time>2010-12-04T08:44:40Z</time>
      </trkpt>
      <trkpt lat="43.36913" lon="2.92888">
        <ele>134</ele>
        <time>2010-12-04T08:44:47Z</time>
      </trkpt>
      <trkpt lat="43.36869" lon="2.92837">
        <ele>135</ele>
        <time>2010-12-04T08:44:57Z</time>
      </trkpt>
      <trkpt lat="43.36845" lon="2.92805">
        <ele>136</ele>
        <time>2010-12-04T08:45:04Z</time>
      </trkpt>
      <trkpt lat="43.36804" lon="2.92712">
        <ele>133</ele>
        <time>2010-12-04T08:45:17Z</time>
      </trkpt>
      <trkpt lat="43.3677" lon="2.92682">
        <ele>132</ele>
        <time>2010-12-04T08:45:24Z</time>
      </trkpt>
      <trkpt lat="43.36697" lon="2.92637">
        <ele>130</ele>
        <time>2010-12-04T08:45:38Z</time>
      </trkpt>
      <trkpt lat="43.3666" lon="2.92632">
        <ele>127</ele>
        <time>2010-12-04T08:45:44Z</time>
      </trkpt>
      <trkpt lat="43.36605" lon="2.926">
        <ele>127</ele>
        <time>2010-12-04T08:45:53Z</time>
      </trkpt>
      <trkpt lat="43.36586" lon="2.9256">
        <ele>127</ele>
        <time>2010-12-04T08:45:59Z</time>
      </trkpt>
      <trkpt lat="43.36552" lon="2.92505">
        <ele>130</ele>
        <time>2010-12-04T08:46:11Z</time>
      </trkpt>
      <trkpt lat="43.36507" lon="2.92482">
        <ele>132</ele>
        <time>2010-12-04T08:46:24Z</time>
      </trkpt>
      <trkpt lat="43.36451" lon="2.92449">
        <ele>133</ele>
        <time>2010-12-04T08:46:39Z</time>
      </trkpt>
      <trkpt lat="43.36401" lon="2.92428">
        <ele>130</ele>
        <time>2010-12-04T08:46:49Z</time>
      </trkpt>
      <trkpt lat="43.36351" lon="2.92394">
        <ele>128</ele>
        <time>2010-12-04T08:46:59Z</time>
      </trkpt>
      <trkpt lat="43.36332" lon="2.92391">
        <ele>128</ele>
        <time>2010-12-04T08:47:02Z</time>
      </trkpt>
      <trkpt lat="43.36297" lon="2.92374">
        <ele>125</ele>
        <time>2010-12-04T08:47:07Z</time>
      </trkpt>
      <trkpt lat="43.36261" lon="2.92344">
        <ele>122</ele>
        <time>2010-12-04T08:47:12Z</time>
      </trkpt>
      <trkpt lat="43.36224" lon="2.92333">
        <ele>118</ele>
        <time>2010-12-04T08:47:16Z</time>
      </trkpt>
      <trkpt lat="43.36183" lon="2.92319">
        <ele>115</ele>
        <time>2010-12-04T08:47:21Z</time>
      </trkpt>
      <trkpt lat="43.36147" lon="2.92315">
        <ele>115</ele>
        <time>2010-12-04T08:47:26Z</time>
      </trkpt>
      <trkpt lat="43.36087" lon="2.92295">
        <ele>112</ele>
        <time>2010-12-04T08:47:35Z</time>
      </trkpt>
      <trkpt lat="43.36029" lon="2.9228">
        <ele>109</ele>
        <time>2010-12-04T08:47:44Z</time>
      </trkpt>
      <trkpt lat="43.35988" lon="2.92244">
        <ele>106</ele>
        <time>2010-12-04T08:47:51Z</time>
      </trkpt>
      <trkpt lat="43.35936" lon="2.92215">
        <ele>101</ele>
        <time>2010-12-04T08:48:00Z</time>
      </trkpt>
      <trkpt lat="43.35939" lon="2.92173">
        <ele>101</ele>
        <time>2010-12-04T08:48:08Z</time>
      </trkpt>
      <trkpt lat="43.35927" lon="2.92146">
        <ele>102</ele>
        <time>2010-12-04T08:48:15Z</time>
      </trkpt>
      <trkpt lat="43.35916" lon="2.92172">
        <ele>104</ele>
        <time>2010-12-04T08:48:22Z</time>
      </trkpt>
      <trkpt lat="43.3589" lon="2.92217">
        <ele>103</ele>
        <time>2010-12-04T08:48:32Z</time>
      </trkpt>
      <trkpt lat="43.35871" lon="2.92208">
        <ele>101</ele>
        <time>2010-12-04T08:48:36Z</time>
      </trkpt>
      <trkpt lat="43.35838" lon="2.92185">
        <ele>100</ele>
        <time>2010-12-04T08:48:42Z</time>
      </trkpt>
      <trkpt lat="43.35816" lon="2.92214">
        <ele>99</ele>
        <time>2010-12-04T08:48:47Z</time>
      </trkpt>
      <trkpt lat="43.35787" lon="2.92283">
        <ele>98</ele>
        <time>2010-12-04T08:48:58Z</time>
      </trkpt>
      <trkpt lat="43.35786" lon="2.92317">
        <ele>97</ele>
        <time>2010-12-04T08:49:05Z</time>
      </trkpt>
      <trkpt lat="43.35784" lon="2.92322">
        <ele>96</ele>
        <time>2010-12-04T08:49:14Z</time>
      </trkpt>
      <trkpt lat="43.35784" lon="2.92324">
        <ele>97</ele>
        <time>2010-12-04T08:49:18Z</time>
      </trkpt>
      <trkpt lat="43.35786" lon="2.92325">
        <ele>97</ele>
        <time>2010-12-04T08:49:22Z</time>
      </trkpt>
      <trkpt lat="43.35785" lon="2.92328">
        <ele>97</ele>
        <time>2010-12-04T08:49:26Z</time>
      </trkpt>
      <trkpt lat="43.35781" lon="2.92336">
        <ele>97</ele>
        <time>2010-12-04T08:49:34Z</time>
      </trkpt>
      <trkpt lat="43.35778" lon="2.92338">
        <ele>97</ele>
        <time>2010-12-04T08:49:56Z</time>
      </trkpt>
      <trkpt lat="43.35756" lon="2.92327">
        <ele>97</ele>
        <time>2010-12-04T08:50:05Z</time>
      </trkpt>
      <trkpt lat="43.35727" lon="2.9235">
        <ele>97</ele>
        <time>2010-12-04T08:50:14Z</time>
      </trkpt>
      <trkpt lat="43.35711" lon="2.92404">
        <ele>98</ele>
        <time>2010-12-04T08:50:25Z</time>
      </trkpt>
      <trkpt lat="43.3571" lon="2.92434">
        <ele>97</ele>
        <time>2010-12-04T08:50:32Z</time>
      </trkpt>
      <trkpt lat="43.3571" lon="2.92442">
        <ele>97</ele>
        <time>2010-12-04T08:50:48Z</time>
      </trkpt>
      <trkpt lat="43.35709" lon="2.92483">
        <ele>97</ele>
        <time>2010-12-04T08:50:54Z</time>
      </trkpt>
      <trkpt lat="43.35706" lon="2.92536">
        <ele>97</ele>
        <time>2010-12-04T08:51:01Z</time>
      </trkpt>
      <trkpt lat="43.35696" lon="2.9257">
        <ele>97</ele>
        <time>2010-12-04T08:51:09Z</time>
      </trkpt>
      <trkpt lat="43.35692" lon="2.92594">
        <ele>97</ele>
        <time>2010-12-04T08:51:16Z</time>
      </trkpt>
      <trkpt lat="43.35651" lon="2.92666">
        <ele>96</ele>
        <time>2010-12-04T08:51:29Z</time>
      </trkpt>
      <trkpt lat="43.35638" lon="2.92715">
        <ele>96</ele>
        <time>2010-12-04T08:51:36Z</time>
      </trkpt>
      <trkpt lat="43.35627" lon="2.92808">
        <ele>96</ele>
        <time>2010-12-04T08:51:48Z</time>
      </trkpt>
      <trkpt lat="43.35626" lon="2.92892">
        <ele>97</ele>
        <time>2010-12-04T08:51:59Z</time>
      </trkpt>
      <trkpt lat="43.35609" lon="2.92949">
        <ele>95</ele>
        <time>2010-12-04T08:52:06Z</time>
      </trkpt>
      <trkpt lat="43.35575" lon="2.93054">
        <ele>93</ele>
        <time>2010-12-04T08:52:19Z</time>
      </trkpt>
      <trkpt lat="43.35552" lon="2.93117">
        <ele>93</ele>
        <time>2010-12-04T08:52:29Z</time>
      </trkpt>
      <trkpt lat="43.35546" lon="2.93148">
        <ele>92</ele>
        <time>2010-12-04T08:52:36Z</time>
      </trkpt>
      <trkpt lat="43.35545" lon="2.9315">
        <ele>92</ele>
        <time>2010-12-04T08:52:43Z</time>
      </trkpt>
      <trkpt lat="43.35541" lon="2.93188">
        <ele>92</ele>
        <time>2010-12-04T08:52:53Z</time>
      </trkpt>
      <trkpt lat="43.35535" lon="2.93276">
        <ele>92</ele>
        <time>2010-12-04T08:53:11Z</time>
      </trkpt>
      <trkpt lat="43.35513" lon="2.93327">
        <ele>91</ele>
        <time>2010-12-04T08:53:21Z</time>
      </trkpt>
      <trkpt lat="43.3549" lon="2.93431">
        <ele>88</ele>
        <time>2010-12-04T08:53:35Z</time>
      </trkpt>
      <trkpt lat="43.35487" lon="2.93508">
        <ele>87</ele>
        <time>2010-12-04T08:53:46Z</time>
      </trkpt>
      <trkpt lat="43.35476" lon="2.936">
        <ele>86</ele>
        <time>2010-12-04T08:53:59Z</time>
      </trkpt>
      <trkpt lat="43.35469" lon="2.93617">
        <ele>85</ele>
        <time>2010-12-04T08:54:06Z</time>
      </trkpt>
      <trkpt lat="43.35436" lon="2.93545">
        <ele>85</ele>
        <time>2010-12-04T08:54:21Z</time>
      </trkpt>
      <trkpt lat="43.35422" lon="2.93497">
        <ele>87</ele>
        <time>2010-12-04T08:54:30Z</time>
      </trkpt>
      <trkpt lat="43.3541" lon="2.93395">
        <ele>87</ele>
        <time>2010-12-04T08:54:47Z</time>
      </trkpt>
      <trkpt lat="43.35416" lon="2.93297">
        <ele>84</ele>
        <time>2010-12-04T08:55:00Z</time>
      </trkpt>
      <trkpt lat="43.35412" lon="2.93257">
        <ele>83</ele>
        <time>2010-12-04T08:55:06Z</time>
      </trkpt>
      <trkpt lat="43.35409" lon="2.93225">
        <ele>84</ele>
        <time>2010-12-04T08:55:13Z</time>
      </trkpt>
      <trkpt lat="43.35436" lon="2.93143">
        <ele>86</ele>
        <time>2010-12-04T08:55:31Z</time>
      </trkpt>
      <trkpt lat="43.35434" lon="2.93094">
        <ele>90</ele>
        <time>2010-12-04T08:55:46Z</time>
      </trkpt>
      <trkpt lat="43.35416" lon="2.93079">
        <ele>94</ele>
        <time>2010-12-04T08:55:59Z</time>
      </trkpt>
      <trkpt lat="43.35388" lon="2.93073">
        <ele>95</ele>
        <time>2010-12-04T08:56:12Z</time>
      </trkpt>
      <trkpt lat="43.35399" lon="2.93027">
        <ele>98</ele>
        <time>2010-12-04T08:56:28Z</time>
      </trkpt>
      <trkpt lat="43.35397" lon="2.93002">
        <ele>101</ele>
        <time>2010-12-04T08:56:38Z</time>
      </trkpt>
      <trkpt lat="43.35403" lon="2.92965">
        <ele>103</ele>
        <time>2010-12-04T08:56:52Z</time>
      </trkpt>
      <trkpt lat="43.3542" lon="2.9291">
        <ele>104</ele>
        <time>2010-12-04T08:57:09Z</time>
      </trkpt>
      <trkpt lat="43.35432" lon="2.92864">
        <ele>105</ele>
        <time>2010-12-04T08:57:25Z</time>
      </trkpt>
      <trkpt lat="43.35434" lon="2.92827">
        <ele>107</ele>
        <time>2010-12-04T08:57:37Z</time>
      </trkpt>
      <trkpt lat="43.3544" lon="2.92774">
        <ele>109</ele>
        <time>2010-12-04T08:57:53Z</time>
      </trkpt>
      <trkpt lat="43.35434" lon="2.92751">
        <ele>111</ele>
        <time>2010-12-04T08:58:01Z</time>
      </trkpt>
      <trkpt lat="43.35435" lon="2.92701">
        <ele>115</ele>
        <time>2010-12-04T08:58:17Z</time>
      </trkpt>
      <trkpt lat="43.35447" lon="2.92657">
        <ele>113</ele>
        <time>2010-12-04T08:58:29Z</time>
      </trkpt>
      <trkpt lat="43.35457" lon="2.9266">
        <ele>111</ele>
        <time>2010-12-04T08:58:34Z</time>
      </trkpt>
      <trkpt lat="43.35477" lon="2.92719">
        <ele>112</ele>
        <time>2010-12-04T08:58:48Z</time>
      </trkpt>
      <trkpt lat="43.35513" lon="2.92748">
        <ele>113</ele>
        <time>2010-12-04T08:59:01Z</time>
      </trkpt>
      <trkpt lat="43.35533" lon="2.92726">
        <ele>115</ele>
        <time>2010-12-04T08:59:13Z</time>
      </trkpt>
      <trkpt lat="43.35538" lon="2.92684">
        <ele>116</ele>
        <time>2010-12-04T08:59:27Z</time>
      </trkpt>
      <trkpt lat="43.35548" lon="2.92639">
        <ele>117</ele>
        <time>2010-12-04T08:59:41Z</time>
      </trkpt>
      <trkpt lat="43.35553" lon="2.92586">
        <ele>121</ele>
        <time>2010-12-04T08:59:56Z</time>
      </trkpt>
      <trkpt lat="43.35543" lon="2.92548">
        <ele>123</ele>
        <time>2010-12-04T09:00:09Z</time>
      </trkpt>
      <trkpt lat="43.35519" lon="2.92512">
        <ele>125</ele>
        <time>2010-12-04T09:00:23Z</time>
      </trkpt>
      <trkpt lat="43.3551" lon="2.92474">
        <ele>127</ele>
        <time>2010-12-04T09:00:35Z</time>
      </trkpt>
      <trkpt lat="43.35514" lon="2.92429">
        <ele>127</ele>
        <time>2010-12-04T09:00:48Z</time>
      </trkpt>
      <trkpt lat="43.35542" lon="2.92375">
        <ele>128</ele>
        <time>2010-12-04T09:01:05Z</time>
      </trkpt>
      <trkpt lat="43.35545" lon="2.92321">
        <ele>129</ele>
        <time>2010-12-04T09:01:18Z</time>
      </trkpt>
      <trkpt lat="43.35524" lon="2.92273">
        <ele>130</ele>
        <time>2010-12-04T09:01:31Z</time>
      </trkpt>
      <trkpt lat="43.35504" lon="2.92239">
        <ele>130</ele>
        <time>2010-12-04T09:01:43Z</time>
      </trkpt>
      <trkpt lat="43.35487" lon="2.92208">
        <ele>132</ele>
        <time>2010-12-04T09:01:56Z</time>
      </trkpt>
      <trkpt lat="43.35466" lon="2.92177">
        <ele>135</ele>
        <time>2010-12-04T09:02:09Z</time>
      </trkpt>
      <trkpt lat="43.35466" lon="2.92127">
        <ele>136</ele>
        <time>2010-12-04T09:02:26Z</time>
      </trkpt>
      <trkpt lat="43.35469" lon="2.92091">
        <ele>140</ele>
        <time>2010-12-04T09:02:38Z</time>
      </trkpt>
      <trkpt lat="43.35469" lon="2.92046">
        <ele>142</ele>
        <time>2010-12-04T09:02:54Z</time>
      </trkpt>
      <trkpt lat="43.35476" lon="2.92001">
        <ele>145</ele>
        <time>2010-12-04T09:03:12Z</time>
      </trkpt>
      <trkpt lat="43.35483" lon="2.91967">
        <ele>149</ele>
        <time>2010-12-04T09:03:26Z</time>
      </trkpt>
      <trkpt lat="43.35487" lon="2.91936">
        <ele>150</ele>
        <time>2010-12-04T09:03:38Z</time>
      </trkpt>
      <trkpt lat="43.35495" lon="2.91906">
        <ele>152</ele>
        <time>2010-12-04T09:03:51Z</time>
      </trkpt>
      <trkpt lat="43.35502" lon="2.91877">
        <ele>155</ele>
        <time>2010-12-04T09:04:05Z</time>
      </trkpt>
      <trkpt lat="43.35511" lon="2.91847">
        <ele>158</ele>
        <time>2010-12-04T09:04:20Z</time>
      </trkpt>
      <trkpt lat="43.35517" lon="2.91817">
        <ele>159</ele>
        <time>2010-12-04T09:04:33Z</time>
      </trkpt>
      <trkpt lat="43.35518" lon="2.91768">
        <ele>159</ele>
        <time>2010-12-04T09:04:46Z</time>
      </trkpt>
      <trkpt lat="43.35509" lon="2.91709">
        <ele>160</ele>
        <time>2010-12-04T09:05:00Z</time>
      </trkpt>
      <trkpt lat="43.35484" lon="2.91706">
        <ele>160</ele>
        <time>2010-12-04T09:05:09Z</time>
      </trkpt>
      <trkpt lat="43.35455" lon="2.91715">
        <ele>159</ele>
        <time>2010-12-04T09:05:16Z</time>
      </trkpt>
      <trkpt lat="43.35452" lon="2.917">
        <ele>161</ele>
        <time>2010-12-04T09:05:23Z</time>
      </trkpt>
      <trkpt lat="43.3545" lon="2.91678">
        <ele>162</ele>
        <time>2010-12-04T09:05:32Z</time>
      </trkpt>
      <trkpt lat="43.3545" lon="2.91636">
        <ele>163</ele>
        <time>2010-12-04T09:05:44Z</time>
      </trkpt>
      <trkpt lat="43.35459" lon="2.91608">
        <ele>165</ele>
        <time>2010-12-04T09:05:53Z</time>
      </trkpt>
      <trkpt lat="43.35458" lon="2.91572">
        <ele>166</ele>
        <time>2010-12-04T09:06:05Z</time>
      </trkpt>
      <trkpt lat="43.35447" lon="2.91539">
        <ele>169</ele>
        <time>2010-12-04T09:06:17Z</time>
      </trkpt>
      <trkpt lat="43.35434" lon="2.91499">
        <ele>170</ele>
        <time>2010-12-04T09:06:32Z</time>
      </trkpt>
      <trkpt lat="43.35411" lon="2.9147">
        <ele>174</ele>
        <time>2010-12-04T09:06:47Z</time>
      </trkpt>
      <trkpt lat="43.35383" lon="2.91447">
        <ele>174</ele>
        <time>2010-12-04T09:07:00Z</time>
      </trkpt>
      <trkpt lat="43.35353" lon="2.91408">
        <ele>175</ele>
        <time>2010-12-04T09:07:15Z</time>
      </trkpt>
      <trkpt lat="43.35316" lon="2.91392">
        <ele>176</ele>
        <time>2010-12-04T09:07:28Z</time>
      </trkpt>
      <trkpt lat="43.35285" lon="2.91362">
        <ele>177</ele>
        <time>2010-12-04T09:07:41Z</time>
      </trkpt>
      <trkpt lat="43.35263" lon="2.91333">
        <ele>176</ele>
        <time>2010-12-04T09:07:53Z</time>
      </trkpt>
      <trkpt lat="43.35236" lon="2.91303">
        <ele>176</ele>
        <time>2010-12-04T09:08:04Z</time>
      </trkpt>
      <trkpt lat="43.35197" lon="2.91264">
        <ele>173</ele>
        <time>2010-12-04T09:08:13Z</time>
      </trkpt>
      <trkpt lat="43.35196" lon="2.91244">
        <ele>174</ele>
        <time>2010-12-04T09:08:20Z</time>
      </trkpt>
      <trkpt lat="43.35217" lon="2.91244">
        <ele>177</ele>
        <time>2010-12-04T09:08:33Z</time>
      </trkpt>
      <trkpt lat="43.35237" lon="2.91239">
        <ele>181</ele>
        <time>2010-12-04T09:08:46Z</time>
      </trkpt>
      <trkpt lat="43.3525" lon="2.91234">
        <ele>184</ele>
        <time>2010-12-04T09:08:55Z</time>
      </trkpt>
      <trkpt lat="43.35277" lon="2.91229">
        <ele>185</ele>
        <time>2010-12-04T09:09:12Z</time>
      </trkpt>
      <trkpt lat="43.35294" lon="2.91222">
        <ele>189</ele>
        <time>2010-12-04T09:09:24Z</time>
      </trkpt>
      <trkpt lat="43.35326" lon="2.9122">
        <ele>193</ele>
        <time>2010-12-04T09:09:42Z</time>
      </trkpt>
      <trkpt lat="43.35358" lon="2.91225">
        <ele>194</ele>
        <time>2010-12-04T09:09:59Z</time>
      </trkpt>
      <trkpt lat="43.35365" lon="2.91226">
        <ele>194</ele>
        <time>2010-12-04T09:10:08Z</time>
      </trkpt>
      <trkpt lat="43.35366" lon="2.91227">
        <ele>194</ele>
        <time>2010-12-04T09:11:43Z</time>
      </trkpt>
      <trkpt lat="43.35367" lon="2.91227">
        <ele>194</ele>
        <time>2010-12-04T09:14:44Z</time>
      </trkpt>
      <trkpt lat="43.35371" lon="2.91228">
        <ele>192</ele>
        <time>2010-12-04T09:16:46Z</time>
      </trkpt>
      <trkpt lat="43.35372" lon="2.91232">
        <ele>193</ele>
        <time>2010-12-04T09:19:28Z</time>
      </trkpt>
      <trkpt lat="43.3538" lon="2.91237">
        <ele>194</ele>
        <time>2010-12-04T09:19:39Z</time>
      </trkpt>
      <trkpt lat="43.35382" lon="2.91238">
        <ele>193</ele>
        <time>2010-12-04T09:20:09Z</time>
      </trkpt>
      <trkpt lat="43.35381" lon="2.91238">
        <ele>193</ele>
        <time>2010-12-04T09:20:44Z</time>
      </trkpt>
      <trkpt lat="43.35402" lon="2.9126">
        <ele>192</ele>
        <time>2010-12-04T09:20:56Z</time>
      </trkpt>
      <trkpt lat="43.35429" lon="2.91321">
        <ele>191</ele>
        <time>2010-12-04T09:21:10Z</time>
      </trkpt>
      <trkpt lat="43.35465" lon="2.91383">
        <ele>191</ele>
        <time>2010-12-04T09:21:27Z</time>
      </trkpt>
      <trkpt lat="43.35502" lon="2.91425">
        <ele>191</ele>
        <time>2010-12-04T09:21:37Z</time>
      </trkpt>
      <trkpt lat="43.35557" lon="2.91455">
        <ele>194</ele>
        <time>2010-12-04T09:21:54Z</time>
      </trkpt>
      <trkpt lat="43.35587" lon="2.91475">
        <ele>196</ele>
        <time>2010-12-04T09:22:05Z</time>
      </trkpt>
      <trkpt lat="43.35593" lon="2.91456">
        <ele>194</ele>
        <time>2010-12-04T09:22:10Z</time>
      </trkpt>
      <trkpt lat="43.35575" lon="2.91393">
        <ele>193</ele>
        <time>2010-12-04T09:22:18Z</time>
      </trkpt>
      <trkpt lat="43.35552" lon="2.91334">
        <ele>188</ele>
        <time>2010-12-04T09:22:23Z</time>
      </trkpt>
      <trkpt lat="43.35527" lon="2.91271">
        <ele>184</ele>
        <time>2010-12-04T09:22:28Z</time>
      </trkpt>
      <trkpt lat="43.35514" lon="2.91219">
        <ele>179</ele>
        <time>2010-12-04T09:22:32Z</time>
      </trkpt>
      <trkpt lat="43.35506" lon="2.91176">
        <ele>177</ele>
        <time>2010-12-04T09:22:35Z</time>
      </trkpt>
      <trkpt lat="43.3547" lon="2.91105">
        <ele>171</ele>
        <time>2010-12-04T09:22:41Z</time>
      </trkpt>
      <trkpt lat="43.35429" lon="2.91047">
        <ele>166</ele>
        <time>2010-12-04T09:22:47Z</time>
      </trkpt>
      <trkpt lat="43.35376" lon="2.91019">
        <ele>170</ele>
        <time>2010-12-04T09:22:55Z</time>
      </trkpt>
      <trkpt lat="43.35322" lon="2.90993">
        <ele>175</ele>
        <time>2010-12-04T09:23:07Z</time>
      </trkpt>
      <trkpt lat="43.35292" lon="2.90984">
        <ele>177</ele>
        <time>2010-12-04T09:23:14Z</time>
      </trkpt>
      <trkpt lat="43.35244" lon="2.9095">
        <ele>180</ele>
        <time>2010-12-04T09:23:29Z</time>
      </trkpt>
      <trkpt lat="43.35216" lon="2.9092">
        <ele>182</ele>
        <time>2010-12-04T09:23:39Z</time>
      </trkpt>
      <trkpt lat="43.35184" lon="2.909">
        <ele>178</ele>
        <time>2010-12-04T09:23:45Z</time>
      </trkpt>
      <trkpt lat="43.35182" lon="2.90889">
        <ele>177</ele>
        <time>2010-12-04T09:23:50Z</time>
      </trkpt>
      <trkpt lat="43.35218" lon="2.90896">
        <ele>175</ele>
        <time>2010-12-04T09:23:56Z</time>
      </trkpt>
      <trkpt lat="43.35251" lon="2.90907">
        <ele>171</ele>
        <time>2010-12-04T09:24:01Z</time>
      </trkpt>
      <trkpt lat="43.35279" lon="2.90881">
        <ele>164</ele>
        <time>2010-12-04T09:24:06Z</time>
      </trkpt>
      <trkpt lat="43.35324" lon="2.9088">
        <ele>158</ele>
        <time>2010-12-04T09:24:11Z</time>
      </trkpt>
      <trkpt lat="43.35358" lon="2.90878">
        <ele>152</ele>
        <time>2010-12-04T09:24:15Z</time>
      </trkpt>
      <trkpt lat="43.354" lon="2.90902">
        <ele>146</ele>
        <time>2010-12-04T09:24:22Z</time>
      </trkpt>
      <trkpt lat="43.3545" lon="2.9093">
        <ele>144</ele>
        <time>2010-12-04T09:24:29Z</time>
      </trkpt>
      <trkpt lat="43.35488" lon="2.90954">
        <ele>142</ele>
        <time>2010-12-04T09:24:34Z</time>
      </trkpt>
      <trkpt lat="43.35552" lon="2.90979">
        <ele>136</ele>
        <time>2010-12-04T09:24:41Z</time>
      </trkpt>
      <trkpt lat="43.35584" lon="2.91016">
        <ele>130</ele>
        <time>2010-12-04T09:24:47Z</time>
      </trkpt>
      <trkpt lat="43.35615" lon="2.91021">
        <ele>129</ele>
        <time>2010-12-04T09:24:53Z</time>
      </trkpt>
      <trkpt lat="43.35636" lon="2.91035">
        <ele>126</ele>
        <time>2010-12-04T09:24:56Z</time>
      </trkpt>
      <trkpt lat="43.35665" lon="2.91034">
        <ele>118</ele>
        <time>2010-12-04T09:25:02Z</time>
      </trkpt>
      <trkpt lat="43.35699" lon="2.9101">
        <ele>113</ele>
        <time>2010-12-04T09:25:08Z</time>
      </trkpt>
      <trkpt lat="43.35728" lon="2.91036">
        <ele>112</ele>
        <time>2010-12-04T09:25:14Z</time>
      </trkpt>
      <trkpt lat="43.3575" lon="2.91044">
        <ele>110</ele>
        <time>2010-12-04T09:25:18Z</time>
      </trkpt>
      <trkpt lat="43.35792" lon="2.91099">
        <ele>107</ele>
        <time>2010-12-04T09:25:29Z</time>
      </trkpt>
      <trkpt lat="43.35832" lon="2.91172">
        <ele>104</ele>
        <time>2010-12-04T09:25:41Z</time>
      </trkpt>
      <trkpt lat="43.35858" lon="2.91224">
        <ele>102</ele>
        <time>2010-12-04T09:25:49Z</time>
      </trkpt>
      <trkpt lat="43.35881" lon="2.91253">
        <ele>101</ele>
        <time>2010-12-04T09:25:55Z</time>
      </trkpt>
      <trkpt lat="43.35883" lon="2.91253">
        <ele>102</ele>
        <time>2010-12-04T09:26:01Z</time>
      </trkpt>
      <trkpt lat="43.35903" lon="2.91186">
        <ele>102</ele>
        <time>2010-12-04T09:26:14Z</time>
      </trkpt>
      <trkpt lat="43.35919" lon="2.91158">
        <ele>102</ele>
        <time>2010-12-04T09:26:19Z</time>
      </trkpt>
      <trkpt lat="43.35943" lon="2.9112">
        <ele>104</ele>
        <time>2010-12-04T09:26:27Z</time>
      </trkpt>
      <trkpt lat="43.35945" lon="2.91067">
        <ele>105</ele>
        <time>2010-12-04T09:26:36Z</time>
      </trkpt>
      <trkpt lat="43.35915" lon="2.90973">
        <ele>106</ele>
        <time>2010-12-04T09:26:49Z</time>
      </trkpt>
      <trkpt lat="43.35913" lon="2.90936">
        <ele>106</ele>
        <time>2010-12-04T09:26:54Z</time>
      </trkpt>
      <trkpt lat="43.35954" lon="2.90891">
        <ele>107</ele>
        <time>2010-12-04T09:27:03Z</time>
      </trkpt>
      <trkpt lat="43.3597" lon="2.90853">
        <ele>108</ele>
        <time>2010-12-04T09:27:09Z</time>
      </trkpt>
      <trkpt lat="43.35981" lon="2.90773">
        <ele>108</ele>
        <time>2010-12-04T09:27:20Z</time>
      </trkpt>
      <trkpt lat="43.35967" lon="2.90678">
        <ele>109</ele>
        <time>2010-12-04T09:27:33Z</time>
      </trkpt>
      <trkpt lat="43.35975" lon="2.90594">
        <ele>112</ele>
        <time>2010-12-04T09:27:45Z</time>
      </trkpt>
      <trkpt lat="43.36001" lon="2.90565">
        <ele>112</ele>
        <time>2010-12-04T09:27:52Z</time>
      </trkpt>
      <trkpt lat="43.36011" lon="2.90556">
        <ele>112</ele>
        <time>2010-12-04T09:27:59Z</time>
      </trkpt>
      <trkpt lat="43.36001" lon="2.90566">
        <ele>112</ele>
        <time>2010-12-04T09:28:07Z</time>
      </trkpt>
      <trkpt lat="43.35997" lon="2.90564">
        <ele>112</ele>
        <time>2010-12-04T09:28:12Z</time>
      </trkpt>
      <trkpt lat="43.36015" lon="2.90516">
        <ele>112</ele>
        <time>2010-12-04T09:28:23Z</time>
      </trkpt>
      <trkpt lat="43.36017" lon="2.90481">
        <ele>112</ele>
        <time>2010-12-04T09:28:29Z</time>
      </trkpt>
      <trkpt lat="43.36036" lon="2.90451">
        <ele>115</ele>
        <time>2010-12-04T09:28:38Z</time>
      </trkpt>
      <trkpt lat="43.3607" lon="2.90395">
        <ele>118</ele>
        <time>2010-12-04T09:28:54Z</time>
      </trkpt>
      <trkpt lat="43.36092" lon="2.90355">
        <ele>121</ele>
        <time>2010-12-04T09:29:06Z</time>
      </trkpt>
      <trkpt lat="43.36122" lon="2.90328">
        <ele>126</ele>
        <time>2010-12-04T09:29:20Z</time>
      </trkpt>
      <trkpt lat="43.36137" lon="2.90309">
        <ele>127</ele>
        <time>2010-12-04T09:29:27Z</time>
      </trkpt>
      <trkpt lat="43.36142" lon="2.90261">
        <ele>131</ele>
        <time>2010-12-04T09:29:39Z</time>
      </trkpt>
      <trkpt lat="43.36165" lon="2.90227">
        <ele>134</ele>
        <time>2010-12-04T09:29:51Z</time>
      </trkpt>
      <trkpt lat="43.36189" lon="2.90199">
        <ele>137</ele>
        <time>2010-12-04T09:30:03Z</time>
      </trkpt>
      <trkpt lat="43.36216" lon="2.90173">
        <ele>140</ele>
        <time>2010-12-04T09:30:18Z</time>
      </trkpt>
      <trkpt lat="43.36237" lon="2.90123">
        <ele>144</ele>
        <time>2010-12-04T09:30:35Z</time>
      </trkpt>
      <trkpt lat="43.36269" lon="2.90091">
        <ele>146</ele>
        <time>2010-12-04T09:30:49Z</time>
      </trkpt>
      <trkpt lat="43.36293" lon="2.90031">
        <ele>148</ele>
        <time>2010-12-04T09:31:03Z</time>
      </trkpt>
      <trkpt lat="43.36329" lon="2.89947">
        <ele>148</ele>
        <time>2010-12-04T09:31:22Z</time>
      </trkpt>
      <trkpt lat="43.36348" lon="2.89942">
        <ele>149</ele>
        <time>2010-12-04T09:31:27Z</time>
      </trkpt>
      <trkpt lat="43.36376" lon="2.89962">
        <ele>151</ele>
        <time>2010-12-04T09:31:36Z</time>
      </trkpt>
      <trkpt lat="43.36409" lon="2.89981">
        <ele>153</ele>
        <time>2010-12-04T09:31:47Z</time>
      </trkpt>
      <trkpt lat="43.36457" lon="2.90004">
        <ele>157</ele>
        <time>2010-12-04T09:32:04Z</time>
      </trkpt>
      <trkpt lat="43.3649" lon="2.90046">
        <ele>162</ele>
        <time>2010-12-04T09:32:20Z</time>
      </trkpt>
      <trkpt lat="43.36506" lon="2.90081">
        <ele>165</ele>
        <time>2010-12-04T09:32:31Z</time>
      </trkpt>
      <trkpt lat="43.36514" lon="2.90114">
        <ele>168</ele>
        <time>2010-12-04T09:32:40Z</time>
      </trkpt>
      <trkpt lat="43.36526" lon="2.90149">
        <ele>172</ele>
        <time>2010-12-04T09:32:52Z</time>
      </trkpt>
      <trkpt lat="43.36545" lon="2.90188">
        <ele>177</ele>
        <time>2010-12-04T09:33:09Z</time>
      </trkpt>
      <trkpt lat="43.36562" lon="2.90212">
        <ele>179</ele>
        <time>2010-12-04T09:33:19Z</time>
      </trkpt>
      <trkpt lat="43.36581" lon="2.90241">
        <ele>181</ele>
        <time>2010-12-04T09:33:34Z</time>
      </trkpt>
      <trkpt lat="43.36607" lon="2.90286">
        <ele>184</ele>
        <time>2010-12-04T09:33:53Z</time>
      </trkpt>
      <trkpt lat="43.3664" lon="2.90325">
        <ele>188</ele>
        <time>2010-12-04T09:34:10Z</time>
      </trkpt>
      <trkpt lat="43.36673" lon="2.90364">
        <ele>191</ele>
        <time>2010-12-04T09:34:29Z</time>
      </trkpt>
      <trkpt lat="43.36705" lon="2.9039">
        <ele>196</ele>
        <time>2010-12-04T09:34:45Z</time>
      </trkpt>
      <trkpt lat="43.36736" lon="2.90412">
        <ele>200</ele>
        <time>2010-12-04T09:35:00Z</time>
      </trkpt>
      <trkpt lat="43.36776" lon="2.90438">
        <ele>204</ele>
        <time>2010-12-04T09:35:18Z</time>
      </trkpt>
      <trkpt lat="43.36797" lon="2.9045">
        <ele>206</ele>
        <time>2010-12-04T09:35:27Z</time>
      </trkpt>
      <trkpt lat="43.36831" lon="2.9047">
        <ele>210</ele>
        <time>2010-12-04T09:35:42Z</time>
      </trkpt>
      <trkpt lat="43.36872" lon="2.90494">
        <ele>214</ele>
        <time>2010-12-04T09:35:59Z</time>
      </trkpt>
      <trkpt lat="43.36903" lon="2.90509">
        <ele>216</ele>
        <time>2010-12-04T09:36:12Z</time>
      </trkpt>
      <trkpt lat="43.36952" lon="2.90543">
        <ele>219</ele>
        <time>2010-12-04T09:36:29Z</time>
      </trkpt>
      <trkpt lat="43.37007" lon="2.90598">
        <ele>218</ele>
        <time>2010-12-04T09:36:44Z</time>
      </trkpt>
      <trkpt lat="43.37057" lon="2.9066">
        <ele>217</ele>
        <time>2010-12-04T09:36:57Z</time>
      </trkpt>
      <trkpt lat="43.37121" lon="2.90745">
        <ele>218</ele>
        <time>2010-12-04T09:37:15Z</time>
      </trkpt>
      <trkpt lat="43.37153" lon="2.90822">
        <ele>217</ele>
        <time>2010-12-04T09:37:28Z</time>
      </trkpt>
      <trkpt lat="43.3716" lon="2.90852">
        <ele>216</ele>
        <time>2010-12-04T09:37:36Z</time>
      </trkpt>
      <trkpt lat="43.37137" lon="2.90834">
        <ele>219</ele>
        <time>2010-12-04T09:37:48Z</time>
      </trkpt>
      <trkpt lat="43.37104" lon="2.90859">
        <ele>222</ele>
        <time>2010-12-04T09:38:02Z</time>
      </trkpt>
      <trkpt lat="43.37053" lon="2.90888">
        <ele>220</ele>
        <time>2010-12-04T09:38:16Z</time>
      </trkpt>
      <trkpt lat="43.36983" lon="2.90918">
        <ele>220</ele>
        <time>2010-12-04T09:38:31Z</time>
      </trkpt>
      <trkpt lat="43.36943" lon="2.90954">
        <ele>219</ele>
        <time>2010-12-04T09:38:41Z</time>
      </trkpt>
      <trkpt lat="43.36913" lon="2.90966">
        <ele>219</ele>
        <time>2010-12-04T09:38:47Z</time>
      </trkpt>
      <trkpt lat="43.3687" lon="2.91005">
        <ele>221</ele>
        <time>2010-12-04T09:39:00Z</time>
      </trkpt>
      <trkpt lat="43.3685" lon="2.90998">
        <ele>221</ele>
        <time>2010-12-04T09:39:06Z</time>
      </trkpt>
      <trkpt lat="43.36808" lon="2.90948">
        <ele>219</ele>
        <time>2010-12-04T09:39:17Z</time>
      </trkpt>
      <trkpt lat="43.36774" lon="2.90894">
        <ele>220</ele>
        <time>2010-12-04T09:39:29Z</time>
      </trkpt>
      <trkpt lat="43.36771" lon="2.90832">
        <ele>221</ele>
        <time>2010-12-04T09:39:41Z</time>
      </trkpt>
      <trkpt lat="43.36767" lon="2.90764">
        <ele>219</ele>
        <time>2010-12-04T09:39:51Z</time>
      </trkpt>
      <trkpt lat="43.36789" lon="2.90705">
        <ele>220</ele>
        <time>2010-12-04T09:40:03Z</time>
      </trkpt>
      <trkpt lat="43.36792" lon="2.90666">
        <ele>223</ele>
        <time>2010-12-04T09:40:13Z</time>
      </trkpt>
      <trkpt lat="43.36744" lon="2.90635">
        <ele>222</ele>
        <time>2010-12-04T09:40:26Z</time>
      </trkpt>
      <trkpt lat="43.36716" lon="2.90603">
        <ele>222</ele>
        <time>2010-12-04T09:40:34Z</time>
      </trkpt>
      <trkpt lat="43.36676" lon="2.90586">
        <ele>223</ele>
        <time>2010-12-04T09:40:44Z</time>
      </trkpt>
      <trkpt lat="43.36623" lon="2.90537">
        <ele>220</ele>
        <time>2010-12-04T09:40:55Z</time>
      </trkpt>
      <trkpt lat="43.36587" lon="2.90525">
        <ele>219</ele>
        <time>2010-12-04T09:41:01Z</time>
      </trkpt>
      <trkpt lat="43.36563" lon="2.90524">
        <ele>219</ele>
        <time>2010-12-04T09:41:06Z</time>
      </trkpt>
      <trkpt lat="43.36503" lon="2.90465">
        <ele>222</ele>
        <time>2010-12-04T09:41:21Z</time>
      </trkpt>
      <trkpt lat="43.36483" lon="2.90433">
        <ele>220</ele>
        <time>2010-12-04T09:41:27Z</time>
      </trkpt>
      <trkpt lat="43.36453" lon="2.90381">
        <ele>220</ele>
        <time>2010-12-04T09:41:36Z</time>
      </trkpt>
      <trkpt lat="43.36387" lon="2.90318">
        <ele>222</ele>
        <time>2010-12-04T09:41:52Z</time>
      </trkpt>
      <trkpt lat="43.3634" lon="2.90303">
        <ele>223</ele>
        <time>2010-12-04T09:42:02Z</time>
      </trkpt>
      <trkpt lat="43.36313" lon="2.90315">
        <ele>223</ele>
        <time>2010-12-04T09:42:08Z</time>
      </trkpt>
      <trkpt lat="43.36289" lon="2.90346">
        <ele>221</ele>
        <time>2010-12-04T09:42:14Z</time>
      </trkpt>
      <trkpt lat="43.36287" lon="2.90421">
        <ele>219</ele>
        <time>2010-12-04T09:42:23Z</time>
      </trkpt>
      <trkpt lat="43.36337" lon="2.90468">
        <ele>215</ele>
        <time>2010-12-04T09:42:32Z</time>
      </trkpt>
      <trkpt lat="43.36375" lon="2.90525">
        <ele>213</ele>
        <time>2010-12-04T09:42:39Z</time>
      </trkpt>
      <trkpt lat="43.36381" lon="2.90603">
        <ele>210</ele>
        <time>2010-12-04T09:42:46Z</time>
      </trkpt>
      <trkpt lat="43.36411" lon="2.90658">
        <ele>209</ele>
        <time>2010-12-04T09:42:53Z</time>
      </trkpt>
      <trkpt lat="43.36449" lon="2.90682">
        <ele>207</ele>
        <time>2010-12-04T09:42:59Z</time>
      </trkpt>
      <trkpt lat="43.36469" lon="2.90719">
        <ele>204</ele>
        <time>2010-12-04T09:43:05Z</time>
      </trkpt>
      <trkpt lat="43.36479" lon="2.90777">
        <ele>203</ele>
        <time>2010-12-04T09:43:12Z</time>
      </trkpt>
      <trkpt lat="43.36532" lon="2.90828">
        <ele>201</ele>
        <time>2010-12-04T09:43:22Z</time>
      </trkpt>
      <trkpt lat="43.36557" lon="2.90865">
        <ele>199</ele>
        <time>2010-12-04T09:43:28Z</time>
      </trkpt>
      <trkpt lat="43.36552" lon="2.90903">
        <ele>194</ele>
        <time>2010-12-04T09:43:34Z</time>
      </trkpt>
      <trkpt lat="43.36544" lon="2.90884">
        <ele>193</ele>
        <time>2010-12-04T09:43:38Z</time>
      </trkpt>
      <trkpt lat="43.36521" lon="2.90856">
        <ele>191</ele>
        <time>2010-12-04T09:43:43Z</time>
      </trkpt>
      <trkpt lat="43.36482" lon="2.90837">
        <ele>189</ele>
        <time>2010-12-04T09:43:49Z</time>
      </trkpt>
      <trkpt lat="43.3645" lon="2.90819">
        <ele>182</ele>
        <time>2010-12-04T09:43:54Z</time>
      </trkpt>
      <trkpt lat="43.36407" lon="2.90787">
        <ele>173</ele>
        <time>2010-12-04T09:44:00Z</time>
      </trkpt>
      <trkpt lat="43.36379" lon="2.90758">
        <ele>171</ele>
        <time>2010-12-04T09:44:04Z</time>
      </trkpt>
      <trkpt lat="43.36343" lon="2.90722">
        <ele>170</ele>
        <time>2010-12-04T09:44:10Z</time>
      </trkpt>
      <trkpt lat="43.36311" lon="2.90687">
        <ele>165</ele>
        <time>2010-12-04T09:44:17Z</time>
      </trkpt>
      <trkpt lat="43.36319" lon="2.90724">
        <ele>164</ele>
        <time>2010-12-04T09:44:23Z</time>
      </trkpt>
      <trkpt lat="43.36353" lon="2.90777">
        <ele>161</ele>
        <time>2010-12-04T09:44:30Z</time>
      </trkpt>
      <trkpt lat="43.36377" lon="2.90822">
        <ele>157</ele>
        <time>2010-12-04T09:44:37Z</time>
      </trkpt>
      <trkpt lat="43.36355" lon="2.90828">
        <ele>156</ele>
        <time>2010-12-04T09:44:41Z</time>
      </trkpt>
      <trkpt lat="43.36336" lon="2.90853">
        <ele>150</ele>
        <time>2010-12-04T09:44:46Z</time>
      </trkpt>
      <trkpt lat="43.36331" lon="2.90875">
        <ele>146</ele>
        <time>2010-12-04T09:44:52Z</time>
      </trkpt>
      <trkpt lat="43.36313" lon="2.90869">
        <ele>144</ele>
        <time>2010-12-04T09:44:56Z</time>
      </trkpt>
      <trkpt lat="43.36272" lon="2.90877">
        <ele>142</ele>
        <time>2010-12-04T09:45:02Z</time>
      </trkpt>
      <trkpt lat="43.36221" lon="2.90884">
        <ele>140</ele>
        <time>2010-12-04T09:45:10Z</time>
      </trkpt>
      <trkpt lat="43.3621" lon="2.90936">
        <ele>138</ele>
        <time>2010-12-04T09:45:17Z</time>
      </trkpt>
      <trkpt lat="43.36226" lon="2.90986">
        <ele>132</ele>
        <time>2010-12-04T09:45:23Z</time>
      </trkpt>
      <trkpt lat="43.36246" lon="2.91026">
        <ele>128</ele>
        <time>2010-12-04T09:45:28Z</time>
      </trkpt>
      <trkpt lat="43.36252" lon="2.91045">
        <ele>127</ele>
        <time>2010-12-04T09:45:31Z</time>
      </trkpt>
      <trkpt lat="43.36261" lon="2.91076">
        <ele>127</ele>
        <time>2010-12-04T09:45:36Z</time>
      </trkpt>
      <trkpt lat="43.36271" lon="2.91121">
        <ele>125</ele>
        <time>2010-12-04T09:45:43Z</time>
      </trkpt>
      <trkpt lat="43.36254" lon="2.91152">
        <ele>121</ele>
        <time>2010-12-04T09:45:48Z</time>
      </trkpt>
      <trkpt lat="43.36249" lon="2.91187">
        <ele>119</ele>
        <time>2010-12-04T09:45:53Z</time>
      </trkpt>
      <trkpt lat="43.36236" lon="2.91237">
        <ele>118</ele>
        <time>2010-12-04T09:46:00Z</time>
      </trkpt>
      <trkpt lat="43.36214" lon="2.9127">
        <ele>117</ele>
        <time>2010-12-04T09:46:05Z</time>
      </trkpt>
      <trkpt lat="43.36203" lon="2.91328">
        <ele>114</ele>
        <time>2010-12-04T09:46:12Z</time>
      </trkpt>
      <trkpt lat="43.36164" lon="2.91359">
        <ele>113</ele>
        <time>2010-12-04T09:46:19Z</time>
      </trkpt>
      <trkpt lat="43.36085" lon="2.91422">
        <ele>109</ele>
        <time>2010-12-04T09:46:31Z</time>
      </trkpt>
      <trkpt lat="43.36054" lon="2.91487">
        <ele>106</ele>
        <time>2010-12-04T09:46:38Z</time>
      </trkpt>
      <trkpt lat="43.36034" lon="2.91542">
        <ele>104</ele>
        <time>2010-12-04T09:46:44Z</time>
      </trkpt>
      <trkpt lat="43.3601" lon="2.91557">
        <ele>103</ele>
        <time>2010-12-04T09:46:49Z</time>
      </trkpt>
      <trkpt lat="43.35998" lon="2.91572">
        <ele>103</ele>
        <time>2010-12-04T09:46:53Z</time>
      </trkpt>
      <trkpt lat="43.35987" lon="2.91611">
        <ele>105</ele>
        <time>2010-12-04T09:47:01Z</time>
      </trkpt>
      <trkpt lat="43.35973" lon="2.91644">
        <ele>105</ele>
        <time>2010-12-04T09:47:12Z</time>
      </trkpt>
      <trkpt lat="43.36" lon="2.91618">
        <ele>110</ele>
        <time>2010-12-04T09:47:26Z</time>
      </trkpt>
      <trkpt lat="43.3603" lon="2.91609">
        <ele>112</ele>
        <time>2010-12-04T09:47:40Z</time>
      </trkpt>
      <trkpt lat="43.36063" lon="2.91602">
        <ele>116</ele>
        <time>2010-12-04T09:47:54Z</time>
      </trkpt>
      <trkpt lat="43.36112" lon="2.91585">
        <ele>120</ele>
        <time>2010-12-04T09:48:13Z</time>
      </trkpt>
      <trkpt lat="43.36153" lon="2.91585">
        <ele>122</ele>
        <time>2010-12-04T09:48:27Z</time>
      </trkpt>
      <trkpt lat="43.36194" lon="2.91611">
        <ele>125</ele>
        <time>2010-12-04T09:48:44Z</time>
      </trkpt>
      <trkpt lat="43.36231" lon="2.91632">
        <ele>128</ele>
        <time>2010-12-04T09:48:59Z</time>
      </trkpt>
      <trkpt lat="43.36275" lon="2.91635">
        <ele>133</ele>
        <time>2010-12-04T09:49:17Z</time>
      </trkpt>
      <trkpt lat="43.3632" lon="2.91639">
        <ele>136</ele>
        <time>2010-12-04T09:49:34Z</time>
      </trkpt>
      <trkpt lat="43.36367" lon="2.91634">
        <ele>140</ele>
        <time>2010-12-04T09:49:52Z</time>
      </trkpt>
      <trkpt lat="43.36406" lon="2.91628">
        <ele>143</ele>
        <time>2010-12-04T09:50:07Z</time>
      </trkpt>
      <trkpt lat="43.36455" lon="2.91641">
        <ele>147</ele>
        <time>2010-12-04T09:50:26Z</time>
      </trkpt>
      <trkpt lat="43.36491" lon="2.91651">
        <ele>150</ele>
        <time>2010-12-04T09:50:39Z</time>
      </trkpt>
      <trkpt lat="43.36524" lon="2.91649">
        <ele>152</ele>
        <time>2010-12-04T09:50:51Z</time>
      </trkpt>
      <trkpt lat="43.36564" lon="2.91672">
        <ele>156</ele>
        <time>2010-12-04T09:51:06Z</time>
      </trkpt>
      <trkpt lat="43.36608" lon="2.91683">
        <ele>157</ele>
        <time>2010-12-04T09:51:21Z</time>
      </trkpt>
      <trkpt lat="43.3664" lon="2.91701">
        <ele>158</ele>
        <time>2010-12-04T09:51:33Z</time>
      </trkpt>
      <trkpt lat="43.36685" lon="2.91742">
        <ele>161</ele>
        <time>2010-12-04T09:51:49Z</time>
      </trkpt>
      <trkpt lat="43.36742" lon="2.91788">
        <ele>163</ele>
        <time>2010-12-04T09:52:06Z</time>
      </trkpt>
      <trkpt lat="43.36774" lon="2.91822">
        <ele>163</ele>
        <time>2010-12-04T09:52:16Z</time>
      </trkpt>
      <trkpt lat="43.36818" lon="2.91856">
        <ele>165</ele>
        <time>2010-12-04T09:52:28Z</time>
      </trkpt>
      <trkpt lat="43.36847" lon="2.91872">
        <ele>165</ele>
        <time>2010-12-04T09:52:35Z</time>
      </trkpt>
      <trkpt lat="43.36892" lon="2.91894">
        <ele>166</ele>
        <time>2010-12-04T09:52:44Z</time>
      </trkpt>
      <trkpt lat="43.36936" lon="2.91907">
        <ele>168</ele>
        <time>2010-12-04T09:52:53Z</time>
      </trkpt>
      <trkpt lat="43.36965" lon="2.91944">
        <ele>170</ele>
        <time>2010-12-04T09:53:03Z</time>
      </trkpt>
      <trkpt lat="43.37004" lon="2.91983">
        <ele>173</ele>
        <time>2010-12-04T09:53:13Z</time>
      </trkpt>
      <trkpt lat="43.37063" lon="2.92016">
        <ele>175</ele>
        <time>2010-12-04T09:53:27Z</time>
      </trkpt>
      <trkpt lat="43.37105" lon="2.92068">
        <ele>176</ele>
        <time>2010-12-04T09:53:41Z</time>
      </trkpt>
      <trkpt lat="43.37146" lon="2.92098">
        <ele>178</ele>
        <time>2010-12-04T09:53:52Z</time>
      </trkpt>
      <trkpt lat="43.37192" lon="2.92136">
        <ele>181</ele>
        <time>2010-12-04T09:54:06Z</time>
      </trkpt>
      <trkpt lat="43.37249" lon="2.92171">
        <ele>182</ele>
        <time>2010-12-04T09:54:23Z</time>
      </trkpt>
      <trkpt lat="43.37296" lon="2.92183">
        <ele>190</ele>
        <time>2010-12-04T10:09:29Z</time>
      </trkpt>
      <trkpt lat="43.37309" lon="2.92194">
        <ele>191</ele>
        <time>2010-12-04T10:09:37Z</time>
      </trkpt>
      <trkpt lat="43.37339" lon="2.9221">
        <ele>193</ele>
        <time>2010-12-04T10:09:50Z</time>
      </trkpt>
      <trkpt lat="43.37383" lon="2.92225">
        <ele>195</ele>
        <time>2010-12-04T10:10:06Z</time>
      </trkpt>
      <trkpt lat="43.37417" lon="2.92244">
        <ele>197</ele>
        <time>2010-12-04T10:10:19Z</time>
      </trkpt>
      <trkpt lat="43.3744" lon="2.92282">
        <ele>199</ele>
        <time>2010-12-04T10:10:33Z</time>
      </trkpt>
      <trkpt lat="43.37457" lon="2.92332">
        <ele>202</ele>
        <time>2010-12-04T10:10:47Z</time>
      </trkpt>
      <trkpt lat="43.37467" lon="2.92376">
        <ele>205</ele>
        <time>2010-12-04T10:11:00Z</time>
      </trkpt>
      <trkpt lat="43.37471" lon="2.92408">
        <ele>207</ele>
        <time>2010-12-04T10:11:12Z</time>
      </trkpt>
      <trkpt lat="43.37474" lon="2.92447">
        <ele>212</ele>
        <time>2010-12-04T10:11:26Z</time>
      </trkpt>
      <trkpt lat="43.37496" lon="2.92468">
        <ele>214</ele>
        <time>2010-12-04T10:11:38Z</time>
      </trkpt>
      <trkpt lat="43.37535" lon="2.92473">
        <ele>217</ele>
        <time>2010-12-04T10:11:56Z</time>
      </trkpt>
      <trkpt lat="43.37563" lon="2.92481">
        <ele>219</ele>
        <time>2010-12-04T10:12:10Z</time>
      </trkpt>
      <trkpt lat="43.37598" lon="2.92501">
        <ele>221</ele>
        <time>2010-12-04T10:12:24Z</time>
      </trkpt>
      <trkpt lat="43.37635" lon="2.92506">
        <ele>223</ele>
        <time>2010-12-04T10:12:39Z</time>
      </trkpt>
      <trkpt lat="43.3766" lon="2.92479">
        <ele>226</ele>
        <time>2010-12-04T10:12:53Z</time>
      </trkpt>
      <trkpt lat="43.37668" lon="2.92462">
        <ele>229</ele>
        <time>2010-12-04T10:13:00Z</time>
      </trkpt>
      <trkpt lat="43.37689" lon="2.92429">
        <ele>231</ele>
        <time>2010-12-04T10:13:13Z</time>
      </trkpt>
      <trkpt lat="43.37714" lon="2.92423">
        <ele>234</ele>
        <time>2010-12-04T10:13:24Z</time>
      </trkpt>
      <trkpt lat="43.37746" lon="2.9244">
        <ele>237</ele>
        <time>2010-12-04T10:13:39Z</time>
      </trkpt>
      <trkpt lat="43.37766" lon="2.92455">
        <ele>239</ele>
        <time>2010-12-04T10:13:48Z</time>
      </trkpt>
      <trkpt lat="43.37804" lon="2.92485">
        <ele>242</ele>
        <time>2010-12-04T10:14:05Z</time>
      </trkpt>
      <trkpt lat="43.3784" lon="2.92526">
        <ele>243</ele>
        <time>2010-12-04T10:14:20Z</time>
      </trkpt>
      <trkpt lat="43.37874" lon="2.92557">
        <ele>247</ele>
        <time>2010-12-04T10:14:34Z</time>
      </trkpt>
      <trkpt lat="43.379" lon="2.92567">
        <ele>249</ele>
        <time>2010-12-04T10:14:45Z</time>
      </trkpt>
      <trkpt lat="43.3793" lon="2.92551">
        <ele>248</ele>
        <time>2010-12-04T10:14:54Z</time>
      </trkpt>
      <trkpt lat="43.37963" lon="2.92513">
        <ele>249</ele>
        <time>2010-12-04T10:15:05Z</time>
      </trkpt>
      <trkpt lat="43.37997" lon="2.92468">
        <ele>250</ele>
        <time>2010-12-04T10:15:19Z</time>
      </trkpt>
      <trkpt lat="43.38019" lon="2.92412">
        <ele>252</ele>
        <time>2010-12-04T10:15:33Z</time>
      </trkpt>
      <trkpt lat="43.3803" lon="2.92364">
        <ele>254</ele>
        <time>2010-12-04T10:15:45Z</time>
      </trkpt>
      <trkpt lat="43.38044" lon="2.92315">
        <ele>254</ele>
        <time>2010-12-04T10:15:56Z</time>
      </trkpt>
      <trkpt lat="43.38069" lon="2.92266">
        <ele>257</ele>
        <time>2010-12-04T10:16:09Z</time>
      </trkpt>
      <trkpt lat="43.38075" lon="2.92249">
        <ele>257</ele>
        <time>2010-12-04T10:16:17Z</time>
      </trkpt>
      <trkpt lat="43.38068" lon="2.92223">
        <ele>259</ele>
        <time>2010-12-04T10:16:27Z</time>
      </trkpt>
      <trkpt lat="43.38072" lon="2.92171">
        <ele>259</ele>
        <time>2010-12-04T10:16:40Z</time>
      </trkpt>
      <trkpt lat="43.3806" lon="2.9209">
        <ele>260</ele>
        <time>2010-12-04T10:16:57Z</time>
      </trkpt>
      <trkpt lat="43.38029" lon="2.92029">
        <ele>258</ele>
        <time>2010-12-04T10:17:11Z</time>
      </trkpt>
      <trkpt lat="43.38005" lon="2.91986">
        <ele>256</ele>
        <time>2010-12-04T10:17:21Z</time>
      </trkpt>
      <trkpt lat="43.37967" lon="2.91935">
        <ele>253</ele>
        <time>2010-12-04T10:17:30Z</time>
      </trkpt>
      <trkpt lat="43.37937" lon="2.91911">
        <ele>249</ele>
        <time>2010-12-04T10:17:34Z</time>
      </trkpt>
      <trkpt lat="43.3793" lon="2.91876">
        <ele>248</ele>
        <time>2010-12-04T10:17:38Z</time>
      </trkpt>
      <trkpt lat="43.37942" lon="2.91818">
        <ele>251</ele>
        <time>2010-12-04T10:17:50Z</time>
      </trkpt>
      <trkpt lat="43.37974" lon="2.91767">
        <ele>252</ele>
        <time>2010-12-04T10:18:05Z</time>
      </trkpt>
      <trkpt lat="43.37999" lon="2.9173">
        <ele>254</ele>
        <time>2010-12-04T10:18:19Z</time>
      </trkpt>
      <trkpt lat="43.38019" lon="2.91707">
        <ele>259</ele>
        <time>2010-12-04T10:18:31Z</time>
      </trkpt>
      <trkpt lat="43.38028" lon="2.91684">
        <ele>262</ele>
        <time>2010-12-04T10:18:42Z</time>
      </trkpt>
      <trkpt lat="43.38004" lon="2.91642">
        <ele>261</ele>
        <time>2010-12-04T10:18:56Z</time>
      </trkpt>
      <trkpt lat="43.37999" lon="2.91598">
        <ele>262</ele>
        <time>2010-12-04T10:19:07Z</time>
      </trkpt>
      <trkpt lat="43.37976" lon="2.91542">
        <ele>262</ele>
        <time>2010-12-04T10:19:22Z</time>
      </trkpt>
      <trkpt lat="43.37985" lon="2.91528">
        <ele>264</ele>
        <time>2010-12-04T10:19:28Z</time>
      </trkpt>
      <trkpt lat="43.38003" lon="2.9154">
        <ele>265</ele>
        <time>2010-12-04T10:19:36Z</time>
      </trkpt>
      <trkpt lat="43.37994" lon="2.91514">
        <ele>266</ele>
        <time>2010-12-04T10:19:47Z</time>
      </trkpt>
      <trkpt lat="43.37985" lon="2.91484">
        <ele>267</ele>
        <time>2010-12-04T10:19:56Z</time>
      </trkpt>
      <trkpt lat="43.37989" lon="2.91457">
        <ele>267</ele>
        <time>2010-12-04T10:20:03Z</time>
      </trkpt>
      <trkpt lat="43.37983" lon="2.91421">
        <ele>268</ele>
        <time>2010-12-04T10:20:09Z</time>
      </trkpt>
      <trkpt lat="43.37964" lon="2.9136">
        <ele>264</ele>
        <time>2010-12-04T10:20:18Z</time>
      </trkpt>
      <trkpt lat="43.37912" lon="2.91286">
        <ele>260</ele>
        <time>2010-12-04T10:20:27Z</time>
      </trkpt>
      <trkpt lat="43.3787" lon="2.91232">
        <ele>251</ele>
        <time>2010-12-04T10:20:32Z</time>
      </trkpt>
      <trkpt lat="43.37827" lon="2.91181">
        <ele>248</ele>
        <time>2010-12-04T10:20:37Z</time>
      </trkpt>
      <trkpt lat="43.37747" lon="2.91108">
        <ele>239</ele>
        <time>2010-12-04T10:20:46Z</time>
      </trkpt>
      <trkpt lat="43.37704" lon="2.91077">
        <ele>235</ele>
        <time>2010-12-04T10:20:51Z</time>
      </trkpt>
      <trkpt lat="43.37667" lon="2.91044">
        <ele>231</ele>
        <time>2010-12-04T10:20:56Z</time>
      </trkpt>
      <trkpt lat="43.376" lon="2.90969">
        <ele>224</ele>
        <time>2010-12-04T10:21:05Z</time>
      </trkpt>
      <trkpt lat="43.37586" lon="2.90955">
        <ele>224</ele>
        <time>2010-12-04T10:21:07Z</time>
      </trkpt>
      <trkpt lat="43.37582" lon="2.90918">
        <ele>221</ele>
        <time>2010-12-04T10:21:12Z</time>
      </trkpt>
      <trkpt lat="43.37572" lon="2.90899">
        <ele>222</ele>
        <time>2010-12-04T10:21:16Z</time>
      </trkpt>
      <trkpt lat="43.37522" lon="2.90855">
        <ele>221</ele>
        <time>2010-12-04T10:21:29Z</time>
      </trkpt>
      <trkpt lat="43.37482" lon="2.9083">
        <ele>218</ele>
        <time>2010-12-04T10:21:37Z</time>
      </trkpt>
      <trkpt lat="43.37442" lon="2.9081">
        <ele>216</ele>
        <time>2010-12-04T10:21:45Z</time>
      </trkpt>
      <trkpt lat="43.37412" lon="2.90777">
        <ele>217</ele>
        <time>2010-12-04T10:21:55Z</time>
      </trkpt>
      <trkpt lat="43.37405" lon="2.90756">
        <ele>218</ele>
        <time>2010-12-04T10:22:05Z</time>
      </trkpt>
      <trkpt lat="43.37378" lon="2.90713">
        <ele>219</ele>
        <time>2010-12-04T10:22:17Z</time>
      </trkpt>
      <trkpt lat="43.37331" lon="2.90647">
        <ele>218</ele>
        <time>2010-12-04T10:22:32Z</time>
      </trkpt>
      <trkpt lat="43.37326" lon="2.90607">
        <ele>221</ele>
        <time>2010-12-04T10:22:43Z</time>
      </trkpt>
      <trkpt lat="43.37318" lon="2.90565">
        <ele>224</ele>
        <time>2010-12-04T10:22:54Z</time>
      </trkpt>
      <trkpt lat="43.37296" lon="2.90514">
        <ele>222</ele>
        <time>2010-12-04T10:23:03Z</time>
      </trkpt>
      <trkpt lat="43.37279" lon="2.90484">
        <ele>226</ele>
        <time>2010-12-04T10:23:14Z</time>
      </trkpt>
      <trkpt lat="43.37267" lon="2.90466">
        <ele>227</ele>
        <time>2010-12-04T10:23:24Z</time>
      </trkpt>
      <trkpt lat="43.37242" lon="2.90426">
        <ele>230</ele>
        <time>2010-12-04T10:23:42Z</time>
      </trkpt>
      <trkpt lat="43.37218" lon="2.90376">
        <ele>233</ele>
        <time>2010-12-04T10:23:59Z</time>
      </trkpt>
      <trkpt lat="43.3719" lon="2.90361">
        <ele>233</ele>
        <time>2010-12-04T10:24:09Z</time>
      </trkpt>
      <trkpt lat="43.37158" lon="2.90344">
        <ele>234</ele>
        <time>2010-12-04T10:24:17Z</time>
      </trkpt>
      <trkpt lat="43.37148" lon="2.90333">
        <ele>235</ele>
        <time>2010-12-04T10:24:20Z</time>
      </trkpt>
      <trkpt lat="43.37127" lon="2.90286">
        <ele>237</ele>
        <time>2010-12-04T10:24:31Z</time>
      </trkpt>
      <trkpt lat="43.3709" lon="2.90238">
        <ele>239</ele>
        <time>2010-12-04T10:24:46Z</time>
      </trkpt>
      <trkpt lat="43.37068" lon="2.90214">
        <ele>238</ele>
        <time>2010-12-04T10:24:53Z</time>
      </trkpt>
      <trkpt lat="43.37041" lon="2.90194">
        <ele>238</ele>
        <time>2010-12-04T10:24:59Z</time>
      </trkpt>
      <trkpt lat="43.36991" lon="2.90142">
        <ele>238</ele>
        <time>2010-12-04T10:25:13Z</time>
      </trkpt>
      <trkpt lat="43.36955" lon="2.90106">
        <ele>239</ele>
        <time>2010-12-04T10:25:24Z</time>
      </trkpt>
      <trkpt lat="43.36931" lon="2.90066">
        <ele>239</ele>
        <time>2010-12-04T10:25:34Z</time>
      </trkpt>
      <trkpt lat="43.36932" lon="2.90052">
        <ele>240</ele>
        <time>2010-12-04T10:25:39Z</time>
      </trkpt>
      <trkpt lat="43.36951" lon="2.90021">
        <ele>244</ele>
        <time>2010-12-04T10:25:50Z</time>
      </trkpt>
      <trkpt lat="43.36984" lon="2.89966">
        <ele>249</ele>
        <time>2010-12-04T10:26:10Z</time>
      </trkpt>
      <trkpt lat="43.37003" lon="2.8993">
        <ele>252</ele>
        <time>2010-12-04T10:26:23Z</time>
      </trkpt>
      <trkpt lat="43.37032" lon="2.89933">
        <ele>255</ele>
        <time>2010-12-04T10:26:35Z</time>
      </trkpt>
      <trkpt lat="43.37058" lon="2.89942">
        <ele>256</ele>
        <time>2010-12-04T10:26:46Z</time>
      </trkpt>
      <trkpt lat="43.37097" lon="2.89946">
        <ele>258</ele>
        <time>2010-12-04T10:27:00Z</time>
      </trkpt>
      <trkpt lat="43.37132" lon="2.89984">
        <ele>259</ele>
        <time>2010-12-04T10:27:13Z</time>
      </trkpt>
      <trkpt lat="43.37175" lon="2.90016">
        <ele>260</ele>
        <time>2010-12-04T10:27:27Z</time>
      </trkpt>
      <trkpt lat="43.37213" lon="2.90035">
        <ele>262</ele>
        <time>2010-12-04T10:27:39Z</time>
      </trkpt>
      <trkpt lat="43.37242" lon="2.90039">
        <ele>260</ele>
        <time>2010-12-04T10:27:48Z</time>
      </trkpt>
      <trkpt lat="43.37305" lon="2.90103">
        <ele>258</ele>
        <time>2010-12-04T10:28:04Z</time>
      </trkpt>
      <trkpt lat="43.37338" lon="2.90129">
        <ele>257</ele>
        <time>2010-12-04T10:28:12Z</time>
      </trkpt>
      <trkpt lat="43.3736" lon="2.90078">
        <ele>254</ele>
        <time>2010-12-04T10:28:22Z</time>
      </trkpt>
      <trkpt lat="43.37369" lon="2.90068">
        <ele>252</ele>
        <time>2010-12-04T10:28:25Z</time>
      </trkpt>
      <trkpt lat="43.3737" lon="2.90052">
        <ele>252</ele>
        <time>2010-12-04T10:28:31Z</time>
      </trkpt>
      <trkpt lat="43.3736" lon="2.90017">
        <ele>255</ele>
        <time>2010-12-04T10:28:45Z</time>
      </trkpt>
      <trkpt lat="43.37321" lon="2.89982">
        <ele>257</ele>
        <time>2010-12-04T10:28:59Z</time>
      </trkpt>
      <trkpt lat="43.37295" lon="2.89952">
        <ele>259</ele>
        <time>2010-12-04T10:29:11Z</time>
      </trkpt>
      <trkpt lat="43.3726" lon="2.89915">
        <ele>261</ele>
        <time>2010-12-04T10:29:25Z</time>
      </trkpt>
      <trkpt lat="43.37233" lon="2.8987">
        <ele>262</ele>
        <time>2010-12-04T10:29:38Z</time>
      </trkpt>
      <trkpt lat="43.37208" lon="2.89849">
        <ele>263</ele>
        <time>2010-12-04T10:29:48Z</time>
      </trkpt>
      <trkpt lat="43.3717" lon="2.89813">
        <ele>263</ele>
        <time>2010-12-04T10:30:00Z</time>
      </trkpt>
      <trkpt lat="43.37155" lon="2.89798">
        <ele>264</ele>
        <time>2010-12-04T10:30:06Z</time>
      </trkpt>
      <trkpt lat="43.37152" lon="2.89792">
        <ele>263</ele>
        <time>2010-12-04T10:30:12Z</time>
      </trkpt>
      <trkpt lat="43.37151" lon="2.89791">
        <ele>263</ele>
        <time>2010-12-04T10:30:29Z</time>
      </trkpt>
      <trkpt lat="43.37151" lon="2.89789">
        <ele>263</ele>
        <time>2010-12-04T10:30:35Z</time>
      </trkpt>
      <trkpt lat="43.37155" lon="2.89777">
        <ele>261</ele>
        <time>2010-12-04T10:30:42Z</time>
      </trkpt>
      <trkpt lat="43.37171" lon="2.89757">
        <ele>257</ele>
        <time>2010-12-04T10:30:49Z</time>
      </trkpt>
      <trkpt lat="43.37165" lon="2.89727">
        <ele>257</ele>
        <time>2010-12-04T10:30:55Z</time>
      </trkpt>
      <trkpt lat="43.37172" lon="2.89709">
        <ele>260</ele>
        <time>2010-12-04T10:30:59Z</time>
      </trkpt>
      <trkpt lat="43.3718" lon="2.89696">
        <ele>260</ele>
        <time>2010-12-04T10:31:07Z</time>
      </trkpt>
      <trkpt lat="43.37186" lon="2.89681">
        <ele>259</ele>
        <time>2010-12-04T10:31:34Z</time>
      </trkpt>
      <trkpt lat="43.37192" lon="2.89658">
        <ele>252</ele>
        <time>2010-12-04T10:31:40Z</time>
      </trkpt>
      <trkpt lat="43.37192" lon="2.89645">
        <ele>246</ele>
        <time>2010-12-04T10:31:46Z</time>
      </trkpt>
      <trkpt lat="43.37155" lon="2.89625">
        <ele>241</ele>
        <time>2010-12-04T10:31:56Z</time>
      </trkpt>
      <trkpt lat="43.37133" lon="2.89607">
        <ele>236</ele>
        <time>2010-12-04T10:32:02Z</time>
      </trkpt>
      <trkpt lat="43.37115" lon="2.89605">
        <ele>231</ele>
        <time>2010-12-04T10:32:13Z</time>
      </trkpt>
      <trkpt lat="43.37101" lon="2.89604">
        <ele>223</ele>
        <time>2010-12-04T10:32:19Z</time>
      </trkpt>
      <trkpt lat="43.37078" lon="2.89597">
        <ele>218</ele>
        <time>2010-12-04T10:32:26Z</time>
      </trkpt>
      <trkpt lat="43.3706" lon="2.89573">
        <ele>213</ele>
        <time>2010-12-04T10:32:35Z</time>
      </trkpt>
      <trkpt lat="43.37072" lon="2.8955">
        <ele>211</ele>
        <time>2010-12-04T10:32:42Z</time>
      </trkpt>
      <trkpt lat="43.37079" lon="2.89521">
        <ele>213</ele>
        <time>2010-12-04T10:32:48Z</time>
      </trkpt>
      <trkpt lat="43.37106" lon="2.89484">
        <ele>213</ele>
        <time>2010-12-04T10:32:58Z</time>
      </trkpt>
      <trkpt lat="43.37104" lon="2.89434">
        <ele>214</ele>
        <time>2010-12-04T10:33:10Z</time>
      </trkpt>
      <trkpt lat="43.37099" lon="2.89405">
        <ele>218</ele>
        <time>2010-12-04T10:33:17Z</time>
      </trkpt>
      <trkpt lat="43.37075" lon="2.89378">
        <ele>218</ele>
        <time>2010-12-04T10:33:28Z</time>
      </trkpt>
      <trkpt lat="43.37038" lon="2.8937">
        <ele>220</ele>
        <time>2010-12-04T10:33:41Z</time>
      </trkpt>
      <trkpt lat="43.37017" lon="2.89417">
        <ele>221</ele>
        <time>2010-12-04T10:33:53Z</time>
      </trkpt>
      <trkpt lat="43.36978" lon="2.8946">
        <ele>223</ele>
        <time>2010-12-04T10:34:08Z</time>
      </trkpt>
      <trkpt lat="43.36956" lon="2.89435">
        <ele>224</ele>
        <time>2010-12-04T10:34:17Z</time>
      </trkpt>
      <trkpt lat="43.36942" lon="2.89381">
        <ele>227</ele>
        <time>2010-12-04T10:34:32Z</time>
      </trkpt>
      <trkpt lat="43.36936" lon="2.8936">
        <ele>229</ele>
        <time>2010-12-04T10:34:38Z</time>
      </trkpt>
      <trkpt lat="43.36917" lon="2.89323">
        <ele>235</ele>
        <time>2010-12-04T10:34:51Z</time>
      </trkpt>
      <trkpt lat="43.36889" lon="2.89303">
        <ele>239</ele>
        <time>2010-12-04T10:35:05Z</time>
      </trkpt>
      <trkpt lat="43.36864" lon="2.89299">
        <ele>243</ele>
        <time>2010-12-04T10:35:19Z</time>
      </trkpt>
      <trkpt lat="43.36834" lon="2.89291">
        <ele>249</ele>
        <time>2010-12-04T10:35:38Z</time>
      </trkpt>
      <trkpt lat="43.36812" lon="2.89277">
        <ele>252</ele>
        <time>2010-12-04T10:35:55Z</time>
      </trkpt>
      <trkpt lat="43.36793" lon="2.89269">
        <ele>256</ele>
        <time>2010-12-04T10:36:07Z</time>
      </trkpt>
      <trkpt lat="43.3678" lon="2.89283">
        <ele>258</ele>
        <time>2010-12-04T10:36:16Z</time>
      </trkpt>
      <trkpt lat="43.36757" lon="2.89293">
        <ele>259</ele>
        <time>2010-12-04T10:36:26Z</time>
      </trkpt>
      <trkpt lat="43.36707" lon="2.89258">
        <ele>261</ele>
        <time>2010-12-04T10:36:42Z</time>
      </trkpt>
      <trkpt lat="43.36637" lon="2.89205">
        <ele>261</ele>
        <time>2010-12-04T10:36:58Z</time>
      </trkpt>
      <trkpt lat="43.36585" lon="2.89175">
        <ele>262</ele>
        <time>2010-12-04T10:37:08Z</time>
      </trkpt>
      <trkpt lat="43.36522" lon="2.89155">
        <ele>258</ele>
        <time>2010-12-04T10:37:18Z</time>
      </trkpt>
      <trkpt lat="43.36515" lon="2.89135">
        <ele>257</ele>
        <time>2010-12-04T10:37:23Z</time>
      </trkpt>
      <trkpt lat="43.36519" lon="2.89125">
        <ele>257</ele>
        <time>2010-12-04T10:37:29Z</time>
      </trkpt>
      <trkpt lat="43.36522" lon="2.89115">
        <ele>257</ele>
        <time>2010-12-04T10:38:02Z</time>
      </trkpt>
      <trkpt lat="43.36535" lon="2.89072">
        <ele>256</ele>
        <time>2010-12-04T10:38:14Z</time>
      </trkpt>
      <trkpt lat="43.36525" lon="2.89049">
        <ele>255</ele>
        <time>2010-12-04T10:38:21Z</time>
      </trkpt>
      <trkpt lat="43.36503" lon="2.89046">
        <ele>256</ele>
        <time>2010-12-04T10:38:27Z</time>
      </trkpt>
      <trkpt lat="43.36472" lon="2.89047">
        <ele>258</ele>
        <time>2010-12-04T10:38:37Z</time>
      </trkpt>
      <trkpt lat="43.36435" lon="2.8904">
        <ele>257</ele>
        <time>2010-12-04T10:38:47Z</time>
      </trkpt>
      <trkpt lat="43.36399" lon="2.89031">
        <ele>257</ele>
        <time>2010-12-04T10:38:56Z</time>
      </trkpt>
      <trkpt lat="43.36349" lon="2.89019">
        <ele>256</ele>
        <time>2010-12-04T10:39:07Z</time>
      </trkpt>
      <trkpt lat="43.36304" lon="2.88993">
        <ele>255</ele>
        <time>2010-12-04T10:39:16Z</time>
      </trkpt>
      <trkpt lat="43.36269" lon="2.89002">
        <ele>253</ele>
        <time>2010-12-04T10:39:22Z</time>
      </trkpt>
      <trkpt lat="43.36224" lon="2.88977">
        <ele>253</ele>
        <time>2010-12-04T10:39:31Z</time>
      </trkpt>
      <trkpt lat="43.36202" lon="2.88953">
        <ele>252</ele>
        <time>2010-12-04T10:39:37Z</time>
      </trkpt>
      <trkpt lat="43.36173" lon="2.88931">
        <ele>251</ele>
        <time>2010-12-04T10:39:44Z</time>
      </trkpt>
      <trkpt lat="43.3612" lon="2.88912">
        <ele>250</ele>
        <time>2010-12-04T10:39:54Z</time>
      </trkpt>
      <trkpt lat="43.36082" lon="2.88893">
        <ele>250</ele>
        <time>2010-12-04T10:40:02Z</time>
      </trkpt>
      <trkpt lat="43.36066" lon="2.88871">
        <ele>251</ele>
        <time>2010-12-04T10:40:08Z</time>
      </trkpt>
      <trkpt lat="43.36054" lon="2.88867">
        <ele>252</ele>
        <time>2010-12-04T10:40:12Z</time>
      </trkpt>
      <trkpt lat="43.36028" lon="2.88863">
        <ele>253</ele>
        <time>2010-12-04T10:40:21Z</time>
      </trkpt>
      <trkpt lat="43.36008" lon="2.88849">
        <ele>253</ele>
        <time>2010-12-04T10:40:30Z</time>
      </trkpt>
      <trkpt lat="43.3598" lon="2.88845">
        <ele>253</ele>
        <time>2010-12-04T10:40:40Z</time>
      </trkpt>
      <trkpt lat="43.35948" lon="2.88831">
        <ele>254</ele>
        <time>2010-12-04T10:40:49Z</time>
      </trkpt>
      <trkpt lat="43.35914" lon="2.88822">
        <ele>254</ele>
        <time>2010-12-04T10:40:58Z</time>
      </trkpt>
      <trkpt lat="43.35887" lon="2.88818">
        <ele>252</ele>
        <time>2010-12-04T10:41:06Z</time>
      </trkpt>
      <trkpt lat="43.35862" lon="2.88829">
        <ele>251</ele>
        <time>2010-12-04T10:41:13Z</time>
      </trkpt>
      <trkpt lat="43.35844" lon="2.88858">
        <ele>251</ele>
        <time>2010-12-04T10:41:21Z</time>
      </trkpt>
      <trkpt lat="43.35825" lon="2.88874">
        <ele>251</ele>
        <time>2010-12-04T10:41:29Z</time>
      </trkpt>
      <trkpt lat="43.35798" lon="2.88895">
        <ele>250</ele>
        <time>2010-12-04T10:41:37Z</time>
      </trkpt>
      <trkpt lat="43.35787" lon="2.88909">
        <ele>249</ele>
        <time>2010-12-04T10:41:43Z</time>
      </trkpt>
      <trkpt lat="43.3576" lon="2.88937">
        <ele>249</ele>
        <time>2010-12-04T10:41:50Z</time>
      </trkpt>
      <trkpt lat="43.35747" lon="2.88963">
        <ele>250</ele>
        <time>2010-12-04T10:41:56Z</time>
      </trkpt>
      <trkpt lat="43.35739" lon="2.88982">
        <ele>250</ele>
        <time>2010-12-04T10:42:00Z</time>
      </trkpt>
      <trkpt lat="43.35726" lon="2.89022">
        <ele>250</ele>
        <time>2010-12-04T10:42:08Z</time>
      </trkpt>
      <trkpt lat="43.35716" lon="2.89063">
        <ele>250</ele>
        <time>2010-12-04T10:42:15Z</time>
      </trkpt>
      <trkpt lat="43.35743" lon="2.89075">
        <ele>250</ele>
        <time>2010-12-04T10:42:28Z</time>
      </trkpt>
      <trkpt lat="43.35794" lon="2.89077">
        <ele>249</ele>
        <time>2010-12-04T10:42:45Z</time>
      </trkpt>
      <trkpt lat="43.35837" lon="2.8905">
        <ele>250</ele>
        <time>2010-12-04T10:43:00Z</time>
      </trkpt>
      <trkpt lat="43.35884" lon="2.89044">
        <ele>250</ele>
        <time>2010-12-04T10:43:14Z</time>
      </trkpt>
      <trkpt lat="43.35932" lon="2.8904">
        <ele>251</ele>
        <time>2010-12-04T10:43:28Z</time>
      </trkpt>
      <trkpt lat="43.35973" lon="2.89013">
        <ele>252</ele>
        <time>2010-12-04T10:43:41Z</time>
      </trkpt>
      <trkpt lat="43.36017" lon="2.89001">
        <ele>253</ele>
        <time>2010-12-04T10:43:54Z</time>
      </trkpt>
      <trkpt lat="43.36018" lon="2.89">
        <ele>252</ele>
        <time>2010-12-04T10:44:01Z</time>
      </trkpt>
      <trkpt lat="43.36018" lon="2.89">
        <ele>252</ele>
        <time>2010-12-04T10:44:11Z</time>
      </trkpt>
      <trkpt lat="43.3602" lon="2.89001">
        <ele>252</ele>
        <time>2010-12-04T10:44:16Z</time>
      </trkpt>
      <trkpt lat="43.36034" lon="2.88997">
        <ele>252</ele>
        <time>2010-12-04T10:44:21Z</time>
      </trkpt>
      <trkpt lat="43.36061" lon="2.89002">
        <ele>252</ele>
        <time>2010-12-04T10:44:30Z</time>
      </trkpt>
      <trkpt lat="43.36096" lon="2.8903">
        <ele>252</ele>
        <time>2010-12-04T10:44:42Z</time>
      </trkpt>
      <trkpt lat="43.36132" lon="2.89052">
        <ele>253</ele>
        <time>2010-12-04T10:44:53Z</time>
      </trkpt>
      <trkpt lat="43.3617" lon="2.89078">
        <ele>253</ele>
        <time>2010-12-04T10:45:04Z</time>
      </trkpt>
      <trkpt lat="43.36196" lon="2.89106">
        <ele>251</ele>
        <time>2010-12-04T10:45:11Z</time>
      </trkpt>
      <trkpt lat="43.3622" lon="2.89121">
        <ele>252</ele>
        <time>2010-12-04T10:45:16Z</time>
      </trkpt>
      <trkpt lat="43.36262" lon="2.8913">
        <ele>253</ele>
        <time>2010-12-04T10:45:27Z</time>
      </trkpt>
      <trkpt lat="43.36293" lon="2.89128">
        <ele>254</ele>
        <time>2010-12-04T10:45:35Z</time>
      </trkpt>
      <trkpt lat="43.36319" lon="2.89148">
        <ele>253</ele>
        <time>2010-12-04T10:45:42Z</time>
      </trkpt>
      <trkpt lat="43.3632" lon="2.89184">
        <ele>253</ele>
        <time>2010-12-04T10:45:48Z</time>
      </trkpt>
      <trkpt lat="43.3629" lon="2.8921">
        <ele>251</ele>
        <time>2010-12-04T10:45:54Z</time>
      </trkpt>
      <trkpt lat="43.3625" lon="2.89264">
        <ele>252</ele>
        <time>2010-12-04T10:46:05Z</time>
      </trkpt>
      <trkpt lat="43.36234" lon="2.89257">
        <ele>252</ele>
        <time>2010-12-04T10:46:10Z</time>
      </trkpt>
      <trkpt lat="43.36205" lon="2.89224">
        <ele>250</ele>
        <time>2010-12-04T10:46:18Z</time>
      </trkpt>
      <trkpt lat="43.3619" lon="2.89229">
        <ele>252</ele>
        <time>2010-12-04T10:46:24Z</time>
      </trkpt>
      <trkpt lat="43.36169" lon="2.89229">
        <ele>250</ele>
        <time>2010-12-04T10:46:33Z</time>
      </trkpt>
      <trkpt lat="43.36163" lon="2.89236">
        <ele>250</ele>
        <time>2010-12-04T10:46:37Z</time>
      </trkpt>
      <trkpt lat="43.36147" lon="2.89265">
        <ele>249</ele>
        <time>2010-12-04T10:46:45Z</time>
      </trkpt>
      <trkpt lat="43.36142" lon="2.89294">
        <ele>248</ele>
        <time>2010-12-04T10:46:55Z</time>
      </trkpt>
      <trkpt lat="43.36128" lon="2.89317">
        <ele>243</ele>
        <time>2010-12-04T10:47:01Z</time>
      </trkpt>
      <trkpt lat="43.36114" lon="2.89343">
        <ele>239</ele>
        <time>2010-12-04T10:47:08Z</time>
      </trkpt>
      <trkpt lat="43.36113" lon="2.89381">
        <ele>232</ele>
        <time>2010-12-04T10:47:18Z</time>
      </trkpt>
      <trkpt lat="43.36113" lon="2.89403">
        <ele>227</ele>
        <time>2010-12-04T10:47:23Z</time>
      </trkpt>
      <trkpt lat="43.36115" lon="2.89417">
        <ele>225</ele>
        <time>2010-12-04T10:47:28Z</time>
      </trkpt>
      <trkpt lat="43.36117" lon="2.89441">
        <ele>218</ele>
        <time>2010-12-04T10:47:33Z</time>
      </trkpt>
      <trkpt lat="43.36115" lon="2.89459">
        <ele>213</ele>
        <time>2010-12-04T10:47:39Z</time>
      </trkpt>
      <trkpt lat="43.3612" lon="2.89467">
        <ele>210</ele>
        <time>2010-12-04T10:47:44Z</time>
      </trkpt>
      <trkpt lat="43.36143" lon="2.89485">
        <ele>206</ele>
        <time>2010-12-04T10:47:53Z</time>
      </trkpt>
      <trkpt lat="43.36149" lon="2.89498">
        <ele>202</ele>
        <time>2010-12-04T10:48:01Z</time>
      </trkpt>
      <trkpt lat="43.36153" lon="2.89507">
        <ele>202</ele>
        <time>2010-12-04T10:48:06Z</time>
      </trkpt>
      <trkpt lat="43.36168" lon="2.89532">
        <ele>201</ele>
        <time>2010-12-04T10:48:17Z</time>
      </trkpt>
      <trkpt lat="43.36179" lon="2.89549">
        <ele>201</ele>
        <time>2010-12-04T10:48:23Z</time>
      </trkpt>
      <trkpt lat="43.36173" lon="2.89586">
        <ele>193</ele>
        <time>2010-12-04T10:48:31Z</time>
      </trkpt>
      <trkpt lat="43.36132" lon="2.89588">
        <ele>185</ele>
        <time>2010-12-04T10:48:40Z</time>
      </trkpt>
      <trkpt lat="43.36115" lon="2.89605">
        <ele>181</ele>
        <time>2010-12-04T10:48:48Z</time>
      </trkpt>
      <trkpt lat="43.36112" lon="2.89631">
        <ele>176</ele>
        <time>2010-12-04T10:48:57Z</time>
      </trkpt>
      <trkpt lat="43.36124" lon="2.89659">
        <ele>169</ele>
        <time>2010-12-04T10:49:04Z</time>
      </trkpt>
      <trkpt lat="43.3613" lon="2.89675">
        <ele>169</ele>
        <time>2010-12-04T10:49:08Z</time>
      </trkpt>
      <trkpt lat="43.3613" lon="2.89675">
        <ele>169</ele>
        <time>2010-12-04T10:49:15Z</time>
      </trkpt>
      <trkpt lat="43.36129" lon="2.89675">
        <ele>169</ele>
        <time>2010-12-04T10:49:24Z</time>
      </trkpt>
      <trkpt lat="43.36128" lon="2.89677">
        <ele>169</ele>
        <time>2010-12-04T10:49:31Z</time>
      </trkpt>
      <trkpt lat="43.36129" lon="2.8968">
        <ele>169</ele>
        <time>2010-12-04T10:52:44Z</time>
      </trkpt>
      <trkpt lat="43.3613" lon="2.89678">
        <ele>169</ele>
        <time>2010-12-04T10:52:50Z</time>
      </trkpt>
      <trkpt lat="43.3613" lon="2.89678">
        <ele>169</ele>
        <time>2010-12-04T10:52:52Z</time>
      </trkpt>
      <trkpt lat="43.36135" lon="2.89686">
        <ele>169</ele>
        <time>2010-12-04T10:53:00Z</time>
      </trkpt>
      <trkpt lat="43.36164" lon="2.8972">
        <ele>168</ele>
        <time>2010-12-04T10:53:12Z</time>
      </trkpt>
      <trkpt lat="43.36191" lon="2.89747">
        <ele>167</ele>
        <time>2010-12-04T10:53:20Z</time>
      </trkpt>
      <trkpt lat="43.36189" lon="2.89768">
        <ele>168</ele>
        <time>2010-12-04T10:53:27Z</time>
      </trkpt>
      <trkpt lat="43.36168" lon="2.89785">
        <ele>170</ele>
        <time>2010-12-04T10:53:40Z</time>
      </trkpt>
      <trkpt lat="43.36145" lon="2.89771">
        <ele>174</ele>
        <time>2010-12-04T10:53:54Z</time>
      </trkpt>
      <trkpt lat="43.36122" lon="2.89754">
        <ele>177</ele>
        <time>2010-12-04T10:54:09Z</time>
      </trkpt>
      <trkpt lat="43.36107" lon="2.89744">
        <ele>180</ele>
        <time>2010-12-04T10:54:21Z</time>
      </trkpt>
      <trkpt lat="43.36085" lon="2.89733">
        <ele>184</ele>
        <time>2010-12-04T10:54:37Z</time>
      </trkpt>
      <trkpt lat="43.36062" lon="2.89723">
        <ele>188</ele>
        <time>2010-12-04T10:54:55Z</time>
      </trkpt>
      <trkpt lat="43.36043" lon="2.89714">
        <ele>190</ele>
        <time>2010-12-04T10:55:09Z</time>
      </trkpt>
      <trkpt lat="43.36019" lon="2.89702">
        <ele>195</ele>
        <time>2010-12-04T10:55:27Z</time>
      </trkpt>
      <trkpt lat="43.36" lon="2.89695">
        <ele>196</ele>
        <time>2010-12-04T10:55:40Z</time>
      </trkpt>
      <trkpt lat="43.35977" lon="2.89685">
        <ele>200</ele>
        <time>2010-12-04T10:55:58Z</time>
      </trkpt>
      <trkpt lat="43.35958" lon="2.89675">
        <ele>205</ele>
        <time>2010-12-04T10:56:12Z</time>
      </trkpt>
      <trkpt lat="43.35937" lon="2.89666">
        <ele>208</ele>
        <time>2010-12-04T10:56:28Z</time>
      </trkpt>
      <trkpt lat="43.35911" lon="2.89661">
        <ele>212</ele>
        <time>2010-12-04T10:56:47Z</time>
      </trkpt>
      <trkpt lat="43.35892" lon="2.8966">
        <ele>216</ele>
        <time>2010-12-04T10:57:02Z</time>
      </trkpt>
      <trkpt lat="43.35883" lon="2.89657">
        <ele>218</ele>
        <time>2010-12-04T10:57:09Z</time>
      </trkpt>
      <trkpt lat="43.35865" lon="2.89642">
        <ele>221</ele>
        <time>2010-12-04T10:57:22Z</time>
      </trkpt>
      <trkpt lat="43.35839" lon="2.89626">
        <ele>223</ele>
        <time>2010-12-04T10:57:40Z</time>
      </trkpt>
      <trkpt lat="43.35817" lon="2.89616">
        <ele>226</ele>
        <time>2010-12-04T10:57:53Z</time>
      </trkpt>
      <trkpt lat="43.35795" lon="2.89613">
        <ele>228</ele>
        <time>2010-12-04T10:58:05Z</time>
      </trkpt>
      <trkpt lat="43.3576" lon="2.89614">
        <ele>232</ele>
        <time>2010-12-04T10:58:21Z</time>
      </trkpt>
      <trkpt lat="43.35721" lon="2.896">
        <ele>233</ele>
        <time>2010-12-04T10:58:35Z</time>
      </trkpt>
      <trkpt lat="43.35675" lon="2.89559">
        <ele>234</ele>
        <time>2010-12-04T10:58:50Z</time>
      </trkpt>
      <trkpt lat="43.35618" lon="2.89507">
        <ele>234</ele>
        <time>2010-12-04T10:59:06Z</time>
      </trkpt>
      <trkpt lat="43.35596" lon="2.89473">
        <ele>235</ele>
        <time>2010-12-04T10:59:13Z</time>
      </trkpt>
      <trkpt lat="43.35543" lon="2.89393">
        <ele>239</ele>
        <time>2010-12-04T10:59:27Z</time>
      </trkpt>
      <trkpt lat="43.35513" lon="2.89356">
        <ele>240</ele>
        <time>2010-12-04T10:59:34Z</time>
      </trkpt>
      <trkpt lat="43.35473" lon="2.89327">
        <ele>243</ele>
        <time>2010-12-04T10:59:42Z</time>
      </trkpt>
      <trkpt lat="43.35408" lon="2.89324">
        <ele>242</ele>
        <time>2010-12-04T10:59:55Z</time>
      </trkpt>
      <trkpt lat="43.35344" lon="2.89342">
        <ele>238</ele>
        <time>2010-12-04T11:00:07Z</time>
      </trkpt>
      <trkpt lat="43.35284" lon="2.89343">
        <ele>235</ele>
        <time>2010-12-04T11:00:15Z</time>
      </trkpt>
      <trkpt lat="43.35224" lon="2.89388">
        <ele>229</ele>
        <time>2010-12-04T11:00:23Z</time>
      </trkpt>
      <trkpt lat="43.35156" lon="2.89446">
        <ele>226</ele>
        <time>2010-12-04T11:00:32Z</time>
      </trkpt>
      <trkpt lat="43.35132" lon="2.8949">
        <ele>224</ele>
        <time>2010-12-04T11:00:37Z</time>
      </trkpt>
      <trkpt lat="43.35077" lon="2.89565">
        <ele>222</ele>
        <time>2010-12-04T11:00:46Z</time>
      </trkpt>
      <trkpt lat="43.34996" lon="2.8967">
        <ele>221</ele>
        <time>2010-12-04T11:01:00Z</time>
      </trkpt>
      <trkpt lat="43.34924" lon="2.89766">
        <ele>221</ele>
        <time>2010-12-04T11:01:13Z</time>
      </trkpt>
      <trkpt lat="43.34943" lon="2.89821">
        <ele>222</ele>
        <time>2010-12-04T11:01:22Z</time>
      </trkpt>
      <trkpt lat="43.34968" lon="2.89884">
        <ele>220</ele>
        <time>2010-12-04T11:01:32Z</time>
      </trkpt>
      <trkpt lat="43.34984" lon="2.89941">
        <ele>219</ele>
        <time>2010-12-04T11:01:41Z</time>
      </trkpt>
      <trkpt lat="43.34993" lon="2.89995">
        <ele>218</ele>
        <time>2010-12-04T11:01:51Z</time>
      </trkpt>
      <trkpt lat="43.34964" lon="2.89976">
        <ele>219</ele>
        <time>2010-12-04T11:02:02Z</time>
      </trkpt>
      <trkpt lat="43.34919" lon="2.89948">
        <ele>221</ele>
        <time>2010-12-04T11:02:17Z</time>
      </trkpt>
      <trkpt lat="43.34891" lon="2.8993">
        <ele>220</ele>
        <time>2010-12-04T11:02:26Z</time>
      </trkpt>
      <trkpt lat="43.34879" lon="2.89946">
        <ele>220</ele>
        <time>2010-12-04T11:02:32Z</time>
      </trkpt>
      <trkpt lat="43.34855" lon="2.90011">
        <ele>222</ele>
        <time>2010-12-04T11:02:47Z</time>
      </trkpt>
      <trkpt lat="43.34826" lon="2.90085">
        <ele>221</ele>
        <time>2010-12-04T11:03:02Z</time>
      </trkpt>
      <trkpt lat="43.34805" lon="2.90153">
        <ele>221</ele>
        <time>2010-12-04T11:03:15Z</time>
      </trkpt>
      <trkpt lat="43.34778" lon="2.9027">
        <ele>216</ele>
        <time>2010-12-04T11:03:34Z</time>
      </trkpt>
      <trkpt lat="43.34759" lon="2.90385">
        <ele>215</ele>
        <time>2010-12-04T11:03:50Z</time>
      </trkpt>
      <trkpt lat="43.34738" lon="2.90501">
        <ele>213</ele>
        <time>2010-12-04T11:04:07Z</time>
      </trkpt>
      <trkpt lat="43.34718" lon="2.90621">
        <ele>212</ele>
        <time>2010-12-04T11:04:25Z</time>
      </trkpt>
      <trkpt lat="43.34708" lon="2.9069">
        <ele>211</ele>
        <time>2010-12-04T11:04:36Z</time>
      </trkpt>
      <trkpt lat="43.34694" lon="2.9075">
        <ele>211</ele>
        <time>2010-12-04T11:04:46Z</time>
      </trkpt>
      <trkpt lat="43.3468" lon="2.90836">
        <ele>211</ele>
        <time>2010-12-04T11:04:59Z</time>
      </trkpt>
      <trkpt lat="43.34643" lon="2.90965">
        <ele>208</ele>
        <time>2010-12-04T11:05:18Z</time>
      </trkpt>
      <trkpt lat="43.34642" lon="2.90993">
        <ele>207</ele>
        <time>2010-12-04T11:05:24Z</time>
      </trkpt>
      <trkpt lat="43.34657" lon="2.90999">
        <ele>208</ele>
        <time>2010-12-04T11:05:28Z</time>
      </trkpt>
      <trkpt lat="43.34659" lon="2.9102">
        <ele>208</ele>
        <time>2010-12-04T11:05:32Z</time>
      </trkpt>
      <trkpt lat="43.34627" lon="2.91131">
        <ele>206</ele>
        <time>2010-12-04T11:05:48Z</time>
      </trkpt>
      <trkpt lat="43.34612" lon="2.9122">
        <ele>206</ele>
        <time>2010-12-04T11:06:01Z</time>
      </trkpt>
      <trkpt lat="43.34592" lon="2.91316">
        <ele>207</ele>
        <time>2010-12-04T11:06:16Z</time>
      </trkpt>
      <trkpt lat="43.3456" lon="2.91433">
        <ele>207</ele>
        <time>2010-12-04T11:06:32Z</time>
      </trkpt>
      <trkpt lat="43.34528" lon="2.91501">
        <ele>206</ele>
        <time>2010-12-04T11:06:43Z</time>
      </trkpt>
      <trkpt lat="43.34504" lon="2.91492">
        <ele>208</ele>
        <time>2010-12-04T11:06:48Z</time>
      </trkpt>
      <trkpt lat="43.34486" lon="2.91502">
        <ele>208</ele>
        <time>2010-12-04T11:06:53Z</time>
      </trkpt>
      <trkpt lat="43.3446" lon="2.91604">
        <ele>208</ele>
        <time>2010-12-04T11:07:09Z</time>
      </trkpt>
      <trkpt lat="43.34442" lon="2.9171">
        <ele>208</ele>
        <time>2010-12-04T11:07:26Z</time>
      </trkpt>
      <trkpt lat="43.34435" lon="2.9176">
        <ele>207</ele>
        <time>2010-12-04T11:07:34Z</time>
      </trkpt>
      <trkpt lat="43.34439" lon="2.91864">
        <ele>208</ele>
        <time>2010-12-04T11:07:48Z</time>
      </trkpt>
      <trkpt lat="43.34441" lon="2.91909">
        <ele>209</ele>
        <time>2010-12-04T11:07:59Z</time>
      </trkpt>
      <trkpt lat="43.34426" lon="2.91922">
        <ele>208</ele>
        <time>2010-12-04T11:08:05Z</time>
      </trkpt>
      <trkpt lat="43.34389" lon="2.91936">
        <ele>208</ele>
        <time>2010-12-04T11:08:14Z</time>
      </trkpt>
      <trkpt lat="43.3438" lon="2.91965">
        <ele>207</ele>
        <time>2010-12-04T11:08:20Z</time>
      </trkpt>
      <trkpt lat="43.34408" lon="2.92026">
        <ele>207</ele>
        <time>2010-12-04T11:08:29Z</time>
      </trkpt>
      <trkpt lat="43.34433" lon="2.92088">
        <ele>207</ele>
        <time>2010-12-04T11:08:38Z</time>
      </trkpt>
      <trkpt lat="43.34453" lon="2.92158">
        <ele>203</ele>
        <time>2010-12-04T11:08:47Z</time>
      </trkpt>
      <trkpt lat="43.34453" lon="2.92183">
        <ele>202</ele>
        <time>2010-12-04T11:08:52Z</time>
      </trkpt>
      <trkpt lat="43.34434" lon="2.92187">
        <ele>202</ele>
        <time>2010-12-04T11:08:56Z</time>
      </trkpt>
      <trkpt lat="43.34402" lon="2.92218">
        <ele>204</ele>
        <time>2010-12-04T11:09:04Z</time>
      </trkpt>
      <trkpt lat="43.34382" lon="2.92302">
        <ele>203</ele>
        <time>2010-12-04T11:09:14Z</time>
      </trkpt>
      <trkpt lat="43.34355" lon="2.92334">
        <ele>204</ele>
        <time>2010-12-04T11:09:20Z</time>
      </trkpt>
      <trkpt lat="43.3434" lon="2.92395">
        <ele>203</ele>
        <time>2010-12-04T11:09:29Z</time>
      </trkpt>
      <trkpt lat="43.34317" lon="2.92476">
        <ele>203</ele>
        <time>2010-12-04T11:09:41Z</time>
      </trkpt>
      <trkpt lat="43.34298" lon="2.92522">
        <ele>202</ele>
        <time>2010-12-04T11:09:49Z</time>
      </trkpt>
      <trkpt lat="43.3426" lon="2.92519">
        <ele>202</ele>
        <time>2010-12-04T11:09:56Z</time>
      </trkpt>
      <trkpt lat="43.34247" lon="2.92583">
        <ele>201</ele>
        <time>2010-12-04T11:10:07Z</time>
      </trkpt>
      <trkpt lat="43.34232" lon="2.92681">
        <ele>199</ele>
        <time>2010-12-04T11:10:20Z</time>
      </trkpt>
      <trkpt lat="43.3422" lon="2.92734">
        <ele>195</ele>
        <time>2010-12-04T11:10:26Z</time>
      </trkpt>
      <trkpt lat="43.3421" lon="2.92778">
        <ele>188</ele>
        <time>2010-12-04T11:10:30Z</time>
      </trkpt>
      <trkpt lat="43.342" lon="2.92814">
        <ele>184</ele>
        <time>2010-12-04T11:10:33Z</time>
      </trkpt>
      <trkpt lat="43.3422" lon="2.92883">
        <ele>182</ele>
        <time>2010-12-04T11:10:40Z</time>
      </trkpt>
      <trkpt lat="43.34239" lon="2.92893">
        <ele>184</ele>
        <time>2010-12-04T11:10:44Z</time>
      </trkpt>
      <trkpt lat="43.34266" lon="2.92945">
        <ele>180</ele>
        <time>2010-12-04T11:10:51Z</time>
      </trkpt>
      <trkpt lat="43.34277" lon="2.92995">
        <ele>177</ele>
        <time>2010-12-04T11:10:59Z</time>
      </trkpt>
      <trkpt lat="43.34261" lon="2.93012">
        <ele>177</ele>
        <time>2010-12-04T11:11:05Z</time>
      </trkpt>
      <trkpt lat="43.34277" lon="2.93043">
        <ele>177</ele>
        <time>2010-12-04T11:11:12Z</time>
      </trkpt>
      <trkpt lat="43.34304" lon="2.93079">
        <ele>177</ele>
        <time>2010-12-04T11:11:21Z</time>
      </trkpt>
      <trkpt lat="43.34282" lon="2.9312">
        <ele>181</ele>
        <time>2010-12-04T11:11:32Z</time>
      </trkpt>
      <trkpt lat="43.34254" lon="2.93158">
        <ele>184</ele>
        <time>2010-12-04T11:11:42Z</time>
      </trkpt>
      <trkpt lat="43.34241" lon="2.93211">
        <ele>181</ele>
        <time>2010-12-04T11:11:52Z</time>
      </trkpt>
      <trkpt lat="43.34245" lon="2.93245">
        <ele>180</ele>
        <time>2010-12-04T11:11:57Z</time>
      </trkpt>
      <trkpt lat="43.34268" lon="2.93263">
        <ele>181</ele>
        <time>2010-12-04T11:12:03Z</time>
      </trkpt>
      <trkpt lat="43.34315" lon="2.93271">
        <ele>179</ele>
        <time>2010-12-04T11:12:14Z</time>
      </trkpt>
      <trkpt lat="43.34328" lon="2.933">
        <ele>179</ele>
        <time>2010-12-04T11:12:19Z</time>
      </trkpt>
      <trkpt lat="43.34366" lon="2.93301">
        <ele>178</ele>
        <time>2010-12-04T11:12:26Z</time>
      </trkpt>
      <trkpt lat="43.34404" lon="2.93327">
        <ele>177</ele>
        <time>2010-12-04T11:12:33Z</time>
      </trkpt>
      <trkpt lat="43.34433" lon="2.93356">
        <ele>174</ele>
        <time>2010-12-04T11:12:39Z</time>
      </trkpt>
      <trkpt lat="43.34456" lon="2.93394">
        <ele>171</ele>
        <time>2010-12-04T11:12:45Z</time>
      </trkpt>
      <trkpt lat="43.34442" lon="2.93442">
        <ele>167</ele>
        <time>2010-12-04T11:12:50Z</time>
      </trkpt>
      <trkpt lat="43.34424" lon="2.93493">
        <ele>159</ele>
        <time>2010-12-04T11:12:55Z</time>
      </trkpt>
      <trkpt lat="43.34422" lon="2.93566">
        <ele>155</ele>
        <time>2010-12-04T11:13:01Z</time>
      </trkpt>
      <trkpt lat="43.34425" lon="2.93608">
        <ele>156</ele>
        <time>2010-12-04T11:13:05Z</time>
      </trkpt>
      <trkpt lat="43.34436" lon="2.93711">
        <ele>148</ele>
        <time>2010-12-04T11:13:14Z</time>
      </trkpt>
      <trkpt lat="43.34436" lon="2.93736">
        <ele>145</ele>
        <time>2010-12-04T11:13:17Z</time>
      </trkpt>
      <trkpt lat="43.34441" lon="2.93689">
        <ele>144</ele>
        <time>2010-12-04T11:13:27Z</time>
      </trkpt>
      <trkpt lat="43.3446" lon="2.93634">
        <ele>143</ele>
        <time>2010-12-04T11:13:34Z</time>
      </trkpt>
      <trkpt lat="43.34481" lon="2.93622">
        <ele>140</ele>
        <time>2010-12-04T11:13:38Z</time>
      </trkpt>
      <trkpt lat="43.34513" lon="2.93645">
        <ele>136</ele>
        <time>2010-12-04T11:13:44Z</time>
      </trkpt>
      <trkpt lat="43.34532" lon="2.93676">
        <ele>130</ele>
        <time>2010-12-04T11:13:50Z</time>
      </trkpt>
      <trkpt lat="43.34571" lon="2.93682">
        <ele>126</ele>
        <time>2010-12-04T11:13:55Z</time>
      </trkpt>
      <trkpt lat="43.34642" lon="2.93655">
        <ele>119</ele>
        <time>2010-12-04T11:14:03Z</time>
      </trkpt>
      <trkpt lat="43.3469" lon="2.93677">
        <ele>116</ele>
        <time>2010-12-04T11:14:09Z</time>
      </trkpt>
      <trkpt lat="43.34738" lon="2.93712">
        <ele>115</ele>
        <time>2010-12-04T11:14:17Z</time>
      </trkpt>
      <trkpt lat="43.34764" lon="2.93761">
        <ele>118</ele>
        <time>2010-12-04T11:14:26Z</time>
      </trkpt>
      <trkpt lat="43.3476" lon="2.93797">
        <ele>116</ele>
        <time>2010-12-04T11:14:33Z</time>
      </trkpt>
      <trkpt lat="43.34761" lon="2.93824">
        <ele>115</ele>
        <time>2010-12-04T11:14:37Z</time>
      </trkpt>
      <trkpt lat="43.34768" lon="2.9389">
        <ele>113</ele>
        <time>2010-12-04T11:14:45Z</time>
      </trkpt>
      <trkpt lat="43.34773" lon="2.9392">
        <ele>112</ele>
        <time>2010-12-04T11:14:53Z</time>
      </trkpt>
      <trkpt lat="43.34792" lon="2.93917">
        <ele>109</ele>
        <time>2010-12-04T11:14:59Z</time>
      </trkpt>
      <trkpt lat="43.34825" lon="2.93915">
        <ele>104</ele>
        <time>2010-12-04T11:15:04Z</time>
      </trkpt>
      <trkpt lat="43.34844" lon="2.93937">
        <ele>103</ele>
        <time>2010-12-04T11:15:09Z</time>
      </trkpt>
      <trkpt lat="43.34864" lon="2.93973">
        <ele>102</ele>
        <time>2010-12-04T11:15:15Z</time>
      </trkpt>
      <trkpt lat="43.34898" lon="2.94035">
        <ele>102</ele>
        <time>2010-12-04T11:15:25Z</time>
      </trkpt>
      <trkpt lat="43.34901" lon="2.94073">
        <ele>103</ele>
        <time>2010-12-04T11:15:31Z</time>
      </trkpt>
      <trkpt lat="43.34909" lon="2.94098">
        <ele>103</ele>
        <time>2010-12-04T11:15:38Z</time>
      </trkpt>
      <trkpt lat="43.34944" lon="2.9411">
        <ele>101</ele>
        <time>2010-12-04T11:15:47Z</time>
      </trkpt>
      <trkpt lat="43.3499" lon="2.94134">
        <ele>98</ele>
        <time>2010-12-04T11:15:57Z</time>
      </trkpt>
      <trkpt lat="43.35058" lon="2.94147">
        <ele>94</ele>
        <time>2010-12-04T11:16:07Z</time>
      </trkpt>
      <trkpt lat="43.35087" lon="2.94123">
        <ele>91</ele>
        <time>2010-12-04T11:16:11Z</time>
      </trkpt>
      <trkpt lat="43.35144" lon="2.94119">
        <ele>90</ele>
        <time>2010-12-04T11:16:18Z</time>
      </trkpt>
      <trkpt lat="43.35188" lon="2.94106">
        <ele>87</ele>
        <time>2010-12-04T11:16:24Z</time>
      </trkpt>
      <trkpt lat="43.35211" lon="2.94097">
        <ele>86</ele>
        <time>2010-12-04T11:16:29Z</time>
      </trkpt>
      <trkpt lat="43.35219" lon="2.94129">
        <ele>86</ele>
        <time>2010-12-04T11:16:34Z</time>
      </trkpt>
      <trkpt lat="43.35242" lon="2.94137">
        <ele>85</ele>
        <time>2010-12-04T11:16:40Z</time>
      </trkpt>
      <trkpt lat="43.35272" lon="2.94101">
        <ele>85</ele>
        <time>2010-12-04T11:16:50Z</time>
      </trkpt>
      <trkpt lat="43.35259" lon="2.94083">
        <ele>85</ele>
        <time>2010-12-04T11:16:55Z</time>
      </trkpt>
      <trkpt lat="43.35234" lon="2.9405">
        <ele>85</ele>
        <time>2010-12-04T11:17:03Z</time>
      </trkpt>
      <trkpt lat="43.35245" lon="2.94038">
        <ele>83</ele>
        <time>2010-12-04T11:17:07Z</time>
      </trkpt>
      <trkpt lat="43.3529" lon="2.94037">
        <ele>83</ele>
        <time>2010-12-04T11:17:18Z</time>
      </trkpt>
      <trkpt lat="43.35337" lon="2.94057">
        <ele>83</ele>
        <time>2010-12-04T11:17:28Z</time>
      </trkpt>
      <trkpt lat="43.35372" lon="2.94064">
        <ele>81</ele>
        <time>2010-12-04T11:17:35Z</time>
      </trkpt>
      <trkpt lat="43.35424" lon="2.9406">
        <ele>79</ele>
        <time>2010-12-04T11:17:45Z</time>
      </trkpt>
      <trkpt lat="43.35434" lon="2.94057">
        <ele>77</ele>
        <time>2010-12-04T11:17:48Z</time>
      </trkpt>
      <trkpt lat="43.35442" lon="2.94033">
        <ele>77</ele>
        <time>2010-12-04T11:17:55Z</time>
      </trkpt>
      <trkpt lat="43.35452" lon="2.94033">
        <ele>78</ele>
        <time>2010-12-04T11:17:59Z</time>
      </trkpt>
      <trkpt lat="43.35489" lon="2.94021">
        <ele>79</ele>
        <time>2010-12-04T11:18:11Z</time>
      </trkpt>
      <trkpt lat="43.35508" lon="2.94032">
        <ele>80</ele>
        <time>2010-12-04T11:18:20Z</time>
      </trkpt>
      <trkpt lat="43.35523" lon="2.94046">
        <ele>83</ele>
        <time>2010-12-04T11:18:28Z</time>
      </trkpt>
      <trkpt lat="43.35539" lon="2.94055">
        <ele>84</ele>
        <time>2010-12-04T11:18:35Z</time>
      </trkpt>
      <trkpt lat="43.35546" lon="2.94102">
        <ele>84</ele>
        <time>2010-12-04T11:18:46Z</time>
      </trkpt>
      <trkpt lat="43.35556" lon="2.94119">
        <ele>83</ele>
        <time>2010-12-04T11:18:54Z</time>
      </trkpt>
      <trkpt lat="43.35563" lon="2.94126">
        <ele>84</ele>
        <time>2010-12-04T11:19:07Z</time>
      </trkpt>
      <trkpt lat="43.35562" lon="2.94128">
        <ele>84</ele>
        <time>2010-12-04T11:19:14Z</time>
      </trkpt>
      <trkpt lat="43.35562" lon="2.94127">
        <ele>84</ele>
        <time>2010-12-04T11:19:23Z</time>
      </trkpt>
      <trkpt lat="43.35562" lon="2.94126">
        <ele>84</ele>
        <time>2010-12-04T11:19:24Z</time>
      </trkpt>
    </trkseg>
  </trk>
</gpx>